Forum Crazy Orc - Centre de statistiques

Statistiques générales

Total des membres:
921
Total des messages:
95 825
Total des sujets:
3 914
Total des catégories:
4
Membres en ligne:
25
Connexions simultanées:
808 - 21 janvier 2020 à 20:55:59
En ligne aujourd'hui:
47
Total des pages vues:
30 490 132
Moyenne des inscriptions par jour:
0,25
Moyenne des messages par jour:
25,69
Moyenne des sujets par jour:
1,13
Total des sections:
40
Dernier membre:
Mosquito Zabuza !
Moyenne d'utilisateurs connectés par jour:
46,87
Ratio hommes/femmes:
7.1:1
Pages vues en moyenne par jour:
5 609,96

Top lanceurs de sujets

nunch
600
ManuDevil
287
GroumpH
246
Morithil
223
Scratchy
132
MAO
110
LeDupontesque
105
jules
99
snake
92
CCCP
84

Temps de connexion cumulé

Mandy
133j 19h 59m
GroumpH
112j 9h 9m
CCCP
85j 1h 33m
Nukeflow
73j 8h 19m
ManuDevil
67j 4h 45m
Felipe
61j 12h 19m
dao
56j 17h 54m
nunch
49j 26m
Rh
42j 23h 32m
Patate
41j 3m

Historique du forum (basé sur l'heure interne du forum)

Résumé annuel Nouveaux sujets Nouveaux messages Nouveaux membres Connexions simultanées Pages vues
* 2022 13 39 8 70 236 399
Janvier 2022 13 39 8 70 236 399
2022-01-01 0 0 0 39 10 922
2022-01-02 4 6 0 38 11 523
2022-01-03 0 2 0 51 9 782
2022-01-04 0 4 0 43 7 524
2022-01-05 1 2 1 35 10 245
2022-01-06 2 2 0 36 8 915
2022-01-07 0 0 0 55 8 448
2022-01-08 0 1 1 38 9 864
2022-01-09 0 0 0 42 10 293
2022-01-10 3 4 1 47 13 227
2022-01-11 0 0 0 50 10 507
2022-01-12 0 1 0 70 33 842
2022-01-13 0 3 0 43 9 184
2022-01-14 0 2 0 43 12 187
2022-01-15 0 1 0 39 10 512
2022-01-16 1 2 2 38 12 767
2022-01-17 1 4 2 45 10 200
2022-01-18 0 1 0 42 11 009
2022-01-19 0 2 0 38 9 173
2022-01-20 1 2 1 50 7 081
2022-01-21 0 0 0 44 5 118
2022-01-22 0 0 0 47 4 076
* 2021 129 756 53 338 4 376 522
Décembre 2021 8 37 0 129 661 064
2021-12-01 0 1 0 86 10 724
2021-12-02 0 6 0 91 7 815
2021-12-03 0 0 0 93 7 911
2021-12-04 0 5 0 92 10 027
2021-12-05 2 2 0 86 10 097
2021-12-06 0 0 0 129 7 479
2021-12-07 0 0 0 101 8 162
2021-12-08 0 2 0 42 6 778
2021-12-09 0 0 0 40 7 532
2021-12-10 4 6 0 55 7 151
2021-12-11 0 1 0 42 9 757
2021-12-12 0 0 0 53 12 585
2021-12-13 0 2 0 48 10 751
2021-12-14 0 0 0 40 13 058
2021-12-15 0 1 0 35 11 053
2021-12-16 0 3 0 50 9 613
2021-12-17 0 1 0 47 11 104
2021-12-18 0 0 0 42 9 597
2021-12-19 0 2 0 48 9 257
2021-12-20 2 2 0 45 10 553
2021-12-21 0 0 0 47 10 988
2021-12-22 0 0 0 44 14 554
2021-12-23 0 1 0 47 43 880
2021-12-24 0 1 0 46 49 317
2021-12-25 0 0 0 47 49 735
2021-12-26 0 0 0 44 48 100
2021-12-27 0 1 0 41 54 117
2021-12-28 0 0 0 37 47 893
2021-12-29 0 0 0 38 54 768
2021-12-30 0 0 0 38 48 213
2021-12-31 0 0 0 38 48 495
Novembre 2021 13 99 4 153 262 314
2021-11-01 0 1 0 104 6 791
2021-11-02 1 4 0 86 7 303
2021-11-03 3 9 1 90 4 912
2021-11-04 1 2 0 113 8 815
2021-11-05 1 12 1 82 8 224
2021-11-06 0 6 0 79 7 367
2021-11-07 0 6 0 70 7 525
2021-11-08 0 0 0 84 5 740
2021-11-09 0 2 0 81 6 641
2021-11-10 0 2 0 115 6 991
2021-11-11 2 8 0 122 9 859
2021-11-12 0 3 0 125 14 014
2021-11-13 0 1 1 135 14 443
2021-11-14 0 3 0 153 13 594
2021-11-15 0 1 0 139 14 330
2021-11-16 0 2 1 132 10 656
2021-11-17 0 3 0 88 7 851
2021-11-18 0 1 0 88 9 836
2021-11-19 0 3 0 75 12 547
2021-11-20 0 4 0 72 7 556
2021-11-21 0 0 0 61 5 092
2021-11-22 4 7 0 67 7 221
2021-11-23 1 4 0 75 7 572
2021-11-24 0 3 0 71 7 662
2021-11-25 0 0 0 80 5 738
2021-11-26 0 1 0 75 6 288
2021-11-27 0 6 0 77 8 820
2021-11-28 0 2 0 83 6 614
2021-11-29 0 2 0 74 11 072
2021-11-30 0 1 0 122 11 240
Octobre 2021 20 208 15 159 298 103
Septembre 2021 24 171 10 280 285 455
2021-09-01 0 3 2 36 8 640
2021-09-02 4 5 0 37 5 800
2021-09-03 0 10 1 36 5 156
2021-09-04 0 2 0 36 6 972
2021-09-05 0 1 0 43 4 981
2021-09-06 1 11 0 41 6 661
2021-09-07 1 12 0 46 10 031
2021-09-08 1 4 0 41 12 326
2021-09-09 0 5 0 49 26 895
2021-09-10 0 6 1 59 9 918
2021-09-11 0 3 0 44 5 933
2021-09-12 1 6 1 39 4 295
2021-09-13 1 6 0 44 7 745
2021-09-14 3 10 0 47 10 087
2021-09-15 3 18 1 280 10 394
2021-09-16 1 7 1 161 10 361
2021-09-17 0 4 0 190 12 432
2021-09-18 0 2 0 188 15 978
2021-09-19 0 2 0 253 13 663
2021-09-20 0 1 0 200 15 111
2021-09-21 1 3 1 125 8 590
2021-09-22 2 6 0 160 8 539
2021-09-23 0 0 1 147 9 848
2021-09-24 1 4 0 66 9 262
2021-09-25 1 6 0 105 6 269
2021-09-26 0 7 1 111 9 599
2021-09-27 1 7 0 103 8 348
2021-09-28 2 15 0 77 7 864
2021-09-29 0 5 0 118 7 060
2021-09-30 0 0 0 102 6 697
Août 2021 11 33 7 73 231 609
2021-08-01 0 0 0 28 9 012
2021-08-02 0 0 0 33 10 340
2021-08-03 0 0 0 48 9 087
2021-08-04 0 0 0 39 6 385
2021-08-05 0 0 1 40 5 603
2021-08-06 0 0 0 40 9 211
2021-08-07 0 0 0 40 10 577
2021-08-08 0 0 0 36 10 060
2021-08-09 0 0 0 40 11 728
2021-08-10 0 0 0 55 10 109
2021-08-11 0 0 0 37 6 508
2021-08-12 0 0 0 39 8 136
2021-08-13 1 3 1 41 6 454
2021-08-14 2 5 1 37 6 972
2021-08-15 0 0 0 43 9 840
2021-08-16 0 0 0 38 13 142
2021-08-17 0 0 0 45 7 592
2021-08-18 0 0 1 38 6 557
2021-08-19 0 0 0 37 6 038
2021-08-20 2 2 0 37 6 461
2021-08-21 0 0 0 48 6 027
2021-08-22 0 0 0 40 2 939
2021-08-23 0 1 0 35 3 225
2021-08-24 0 1 0 41 6 669
2021-08-25 3 7 1 50 9 922
2021-08-26 1 1 0 73 2 986
2021-08-27 0 0 0 35 2 451
2021-08-28 0 1 1 33 5 309
2021-08-29 0 0 0 32 8 982
2021-08-30 2 6 1 32 7 294
2021-08-31 0 6 0 42 5 993
Juillet 2021 6 8 2 81 305 173
2021-07-01 0 0 0 75 10 036
2021-07-02 0 0 0 81 8 440
2021-07-03 0 0 0 67 13 230
2021-07-04 0 0 0 36 8 785
2021-07-05 0 0 0 40 9 194
2021-07-06 0 0 0 42 10 481
2021-07-07 0 0 0 39 7 665
2021-07-08 0 0 0 49 10 484
2021-07-09 0 0 0 50 10 282
2021-07-10 0 0 0 51 10 523
2021-07-11 0 0 0 50 8 246
2021-07-12 0 0 0 45 7 596
2021-07-13 0 0 0 35 7 852
2021-07-14 0 0 0 53 8 163
2021-07-15 0 0 0 38 9 082
2021-07-16 0 0 0 36 8 446
2021-07-17 0 0 1 39 9 669
2021-07-18 0 1 0 39 9 019
2021-07-19 0 0 0 43 11 040
2021-07-20 0 0 0 35 11 389
2021-07-21 0 0 0 40 7 890
2021-07-22 0 0 0 40 7 654
2021-07-23 0 0 0 35 8 792
2021-07-24 0 0 0 32 8 114
2021-07-25 0 0 0 33 6 522
2021-07-26 0 1 0 38 7 728
2021-07-27 0 0 0 35 9 299
2021-07-28 0 0 0 28 6 500
2021-07-29 0 0 0 35 36 222
2021-07-30 0 0 1 37 7 791
2021-07-31 6 6 0 32 9 039
Juin 2021 17 31 2 135 311 168
2021-06-01 6 7 0 65 11 550
2021-06-02 0 0 0 77 12 253
2021-06-03 0 1 0 103 12 092
2021-06-04 0 0 0 93 8 171
2021-06-05 0 0 0 104 7 555
2021-06-06 0 0 0 95 7 530
2021-06-07 0 0 0 79 8 779
2021-06-08 1 3 0 79 10 509
2021-06-09 0 1 0 90 8 325
2021-06-10 0 0 0 88 8 468
2021-06-11 0 0 0 93 9 960
2021-06-12 0 1 0 92 10 963
2021-06-13 1 1 1 86 7 407
2021-06-14 0 0 0 105 6 206
2021-06-15 0 0 0 82 32 410
2021-06-16 4 6 0 83 12 753
2021-06-17 0 0 0 96 11 769
2021-06-18 0 2 0 101 7 377
2021-06-19 0 1 0 135 12 899
2021-06-20 0 0 0 131 10 996
2021-06-21 3 4 1 131 11 219
2021-06-22 0 0 0 101 8 997
2021-06-23 0 1 0 93 7 594
2021-06-24 0 0 0 103 9 103
2021-06-25 0 0 0 80 9 706
2021-06-26 0 0 0 79 9 521
2021-06-27 0 0 0 84 11 194
2021-06-28 0 0 0 75 8 473
2021-06-29 2 2 0 83 8 668
2021-06-30 0 1 0 71 8 721
Mai 2021 3 31 4 268 597 777
2021-05-01 0 0 0 119 39 331
2021-05-02 0 0 0 106 59 354
2021-05-03 0 9 1 101 44 504
2021-05-04 0 2 0 125 12 453
2021-05-05 1 2 0 100 11 360
2021-05-06 0 0 0 101 9 692
2021-05-07 0 2 0 106 8 406
2021-05-08 0 0 0 99 174 998
2021-05-09 0 0 1 97 28 918
2021-05-10 1 2 0 97 8 620
2021-05-11 0 1 0 89 11 124
2021-05-12 0 0 0 83 7 881
2021-05-13 0 0 0 118 7 343
2021-05-14 0 2 0 93 7 444
2021-05-15 0 0 0 108 8 389
2021-05-16 0 0 0 88 7 431
2021-05-17 0 0 0 89 8 744
2021-05-18 0 1 0 92 6 838
2021-05-19 0 1 0 268 11 518
2021-05-20 0 0 0 98 21 067
2021-05-21 1 1 0 152 11 521
2021-05-22 0 0 0 146 11 070
2021-05-23 0 0 0 124 9 498
2021-05-24 0 1 0 109 10 311
2021-05-25 0 5 1 112 11 048
2021-05-26 0 0 0 115 7 597
2021-05-27 0 0 0 100 8 270
2021-05-28 0 0 0 70 10 782
2021-05-29 0 1 0 69 7 978
2021-05-30 0 0 1 67 7 768
2021-05-31 0 1 0 47 6 519
Avril 2021 10 51 6 287 308 355
2021-04-01 1 5 1 73 10 500
2021-04-02 0 2 0 71 8 047
2021-04-03 0 0 0 59 7 541
2021-04-04 1 3 1 56 9 206
2021-04-05 0 0 0 59 8 809
2021-04-06 0 1 0 59 6 737
2021-04-07 0 4 0 63 6 731
2021-04-08 0 0 0 64 9 161
2021-04-09 0 0 0 65 8 780
2021-04-10 0 0 0 64 8 686
2021-04-11 0 1 0 59 9 738
2021-04-12 0 2 0 63 9 761
2021-04-13 1 3 1 71 11 667
2021-04-14 0 4 0 287 14 963
2021-04-15 0 0 0 74 11 393
2021-04-16 0 2 0 68 9 533
2021-04-17 0 0 0 68 7 869
2021-04-18 0 0 0 73 6 458
2021-04-19 0 1 0 67 6 158
2021-04-20 3 3 1 76 9 885
2021-04-21 1 8 1 91 8 256
2021-04-22 0 5 0 132 10 159
2021-04-23 0 0 0 145 14 980
2021-04-24 1 1 0 132 12 209
2021-04-25 0 2 0 142 12 832
2021-04-26 1 2 0 116 9 593
2021-04-27 0 1 0 118 9 289
2021-04-28 0 0 1 107 12 148
2021-04-29 0 0 0 107 9 489
2021-04-30 1 1 0 104 27 777
Mars 2021 7 24 1 308 444 900
2021-03-01 0 0 0 72 8 645
2021-03-02 1 2 0 62 7 066
2021-03-03 0 1 0 58 5 404
2021-03-04 0 0 1 61 5 201
2021-03-05 0 0 0 63 8 432
2021-03-06 0 0 0 60 4 862
2021-03-07 0 1 0 50 4 615
2021-03-08 0 0 0 55 4 461
2021-03-09 0 0 0 58 6 240
2021-03-10 0 0 0 65 8 568
2021-03-11 1 3 0 62 4 993
2021-03-12 0 1 0 55 5 378
2021-03-13 0 0 0 60 4 371
2021-03-14 0 1 0 65 5 377
2021-03-15 1 1 0 69 7 164
2021-03-16 0 1 0 98 8 406
2021-03-17 1 6 0 308 16 132
2021-03-18 0 0 0 75 162 827
2021-03-19 0 0 0 83 38 605
2021-03-20 0 2 0 68 10 275
2021-03-21 0 0 0 72 11 763
2021-03-22 0 0 0 54 8 930
2021-03-23 0 0 0 94 11 374
2021-03-24 0 0 0 97 12 163
2021-03-25 0 0 0 117 11 569
2021-03-26 0 1 0 127 11 884
2021-03-27 0 1 0 104 7 707
2021-03-28 0 0 0 89 8 951
2021-03-29 0 0 0 77 10 399
2021-03-30 0 0 0 73 11 056
2021-03-31 3 3 0 77 12 082
Février 2021 5 29 2 338 223 056
2021-02-01 1 1 0 54 9 051
2021-02-02 0 1 0 50 7 915
2021-02-03 0 0 0 48 4 645
2021-02-04 0 3 0 48 5 872
2021-02-05 0 2 0 48 7 890
2021-02-06 0 0 0 47 6 585
2021-02-07 0 0 0 70 15 429
2021-02-08 0 1 0 54 7 692
2021-02-09 3 3 1 58 8 579
2021-02-10 0 2 0 69 8 517
2021-02-11 0 0 0 59 6 724
2021-02-12 0 4 0 61 8 593
2021-02-13 0 0 0 63 5 515
2021-02-14 0 0 0 62 6 322
2021-02-15 1 5 0 69 8 207
2021-02-16 0 1 0 75 9 081
2021-02-17 0 0 0 338 10 115
2021-02-18 0 0 0 79 7 644
2021-02-19 0 0 0 106 8 262
2021-02-20 0 1 0 78 5 723
2021-02-21 0 1 0 41 3 073
2021-02-22 0 0 0 84 5 600
2021-02-23 0 1 0 86 9 974
2021-02-24 0 3 1 116 9 261
2021-02-25 0 0 0 142 12 642
2021-02-26 0 0 0 140 10 029
2021-02-27 0 0 0 79 7 214
2021-02-28 0 0 0 78 6 902
Janvier 2021 5 34 0 322 447 548
2021-01-01 0 0 0 65 8 853
2021-01-02 0 0 0 61 7 510
2021-01-03 0 0 0 56 8 223
2021-01-04 2 2 0 67 8 142
2021-01-05 0 3 0 56 8 281
2021-01-06 0 4 0 55 5 830
2021-01-07 0 2 0 55 4 092
2021-01-08 0 2 0 53 3 871
2021-01-09 0 0 0 70 5 919
2021-01-10 0 0 0 78 9 200
2021-01-11 1 2 0 66 7 730
2021-01-12 0 1 0 71 7 978
2021-01-13 0 1 0 64 8 287
2021-01-14 0 2 0 80 7 890
2021-01-15 0 0 0 85 9 193
2021-01-16 0 0 0 83 10 085
2021-01-17 0 3 0 81 9 818
2021-01-18 0 5 0 82 10 941
2021-01-19 1 1 0 86 9 009
2021-01-20 0 2 0 322 13 536
2021-01-21 0 1 0 81 24 497
2021-01-22 0 0 0 79 141 457
2021-01-23 0 0 0 85 10 393
2021-01-24 0 0 0 84 11 242
2021-01-25 1 1 0 80 10 151
2021-01-26 0 0 0 93 10 012
2021-01-27 0 1 0 88 10 831
2021-01-28 0 0 0 87 11 541
2021-01-29 0 1 0 81 9 358
2021-01-30 0 0 0 72 23 925
2021-01-31 0 0 0 67 19 753
* 2020 206 1 716 105 808 4 713 463
Décembre 2020 6 38 2 320 310 487
2020-12-01 1 1 0 121 10 809
2020-12-02 0 3 0 116 10 099
2020-12-03 0 2 0 114 11 876
2020-12-04 0 0 0 94 10 791
2020-12-05 0 3 0 82 9 574
2020-12-06 1 10 0 78 10 653
2020-12-07 0 4 0 68 10 998
2020-12-08 0 0 0 66 32 260
2020-12-09 0 1 0 67 7 435
2020-12-10 0 1 1 60 7 610
2020-12-11 0 0 0 60 7 643
2020-12-12 0 1 0 63 7 412
2020-12-13 0 1 0 50 7 185
2020-12-14 1 2 0 46 5 821
2020-12-15 0 1 0 44 8 427
2020-12-16 0 0 0 320 13 083
2020-12-17 0 0 0 74 9 703
2020-12-18 0 0 0 71 8 569
2020-12-19 0 0 0 63 7 390
2020-12-20 0 3 0 65 6 819
2020-12-21 1 1 0 59 6 108
2020-12-22 0 0 0 70 10 438
2020-12-23 0 1 0 73 9 331
2020-12-24 0 0 0 72 10 558
2020-12-25 0 0 0 77 9 826
2020-12-26 0 0 0 72 10 399
2020-12-27 1 1 1 88 10 008
2020-12-28 0 1 0 88 8 712
2020-12-29 1 1 0 105 10 795
2020-12-30 0 0 0 79 10 368
2020-12-31 0 0 0 69 9 787
Novembre 2020 12 97 3 352 464 426
2020-11-01 0 1 0 116 10 715
2020-11-02 2 3 0 125 9 649
2020-11-03 0 7 0 102 10 433
2020-11-04 0 0 0 95 11 152
2020-11-05 0 3 0 92 11 950
2020-11-06 1 4 0 86 9 328
2020-11-07 0 9 0 79 13 532
2020-11-08 0 4 0 97 10 296
2020-11-09 1 6 0 85 10 894
2020-11-10 0 5 0 79 6 851
2020-11-11 0 1 0 83 6 495
2020-11-12 0 1 0 86 10 836
2020-11-13 0 1 0 80 9 519
2020-11-14 0 0 0 72 8 283
2020-11-15 0 2 0 77 8 335
2020-11-16 3 10 1 78 9 396
2020-11-17 0 1 0 104 10 915
2020-11-18 1 2 0 352 16 974
2020-11-19 0 4 0 95 11 042
2020-11-20 1 4 2 87 10 172
2020-11-21 0 1 0 87 9 318
2020-11-22 1 7 0 81 8 520
2020-11-23 0 2 0 86 12 898
2020-11-24 0 3 0 101 11 997
2020-11-25 0 2 0 113 14 003
2020-11-26 1 3 0 108 12 703
2020-11-27 0 6 0 90 63 154
2020-11-28 0 1 0 92 102 895
2020-11-29 0 2 0 105 11 784
2020-11-30 1 2 0 116 10 387
Octobre 2020 21 169 7 346 497 422
Septembre 2020 30 356 15 133 325 183
2020-09-01 1 11 0 132 11 858
2020-09-02 0 7 0 119 11 233
2020-09-03 0 3 0 133 12 311
2020-09-04 0 1 0 107 9 419
2020-09-05 0 5 0 98 9 623
2020-09-06 0 2 0 91 8 360
2020-09-07 2 5 0 89 7 613
2020-09-08 3 18 1 94 7 993
2020-09-09 0 5 0 78 8 983
2020-09-10 2 17 3 79 8 902
2020-09-11 0 17 0 75 7 934
2020-09-12 0 7 1 79 9 406
2020-09-13 2 22 1 85 8 825
2020-09-14 2 20 0 96 9 426
2020-09-15 1 11 1 77 9 576
2020-09-16 2 8 0 91 13 248
2020-09-17 2 16 1 82 11 164
2020-09-18 1 20 1 84 10 275
2020-09-19 1 12 2 84 11 478
2020-09-20 1 7 0 79 12 324
2020-09-21 4 36 2 87 11 686
2020-09-22 1 22 0 87 12 418
2020-09-23 1 18 1 90 14 222
2020-09-24 0 10 0 77 12 651
2020-09-25 0 12 0 83 13 598
2020-09-26 0 7 0 93 10 763
2020-09-27 0 2 0 99 9 820
2020-09-28 2 17 0 117 11 475
2020-09-29 1 8 1 116 13 668
2020-09-30 1 10 0 123 14 931
Août 2020 16 147 7 163 471 897
Juillet 2020 16 77 2 100 345 760
2020-07-01 0 3 0 53 15 128
2020-07-02 0 0 0 50 14 023
2020-07-03 0 0 0 54 10 055
2020-07-04 0 1 0 54 7 181
2020-07-05 1 2 0 53 7 390
2020-07-06 2 4 0 53 12 535
2020-07-07 0 0 0 57 13 793
2020-07-08 1 3 1 56 12 452
2020-07-09 1 5 0 96 12 087
2020-07-10 0 5 0 98 12 988
2020-07-11 0 0 0 88 11 107
2020-07-12 0 2 0 83 8 142
2020-07-13 0 4 0 76 10 295
2020-07-14 1 2 0 78 11 064
2020-07-15 2 3 0 76 12 030
2020-07-16 1 13 0 84 10 150
2020-07-17 0 2 0 65 10 880
2020-07-18 0 1 0 68 11 217
2020-07-19 0 1 0 74 13 216
2020-07-20 1 6 1 100 12 998
2020-07-21 0 6 0 93 11 786
2020-07-22 3 6 0 73 9 832
2020-07-23 1 1 0 78 11 746
2020-07-24 0 1 0 90 11 406
2020-07-25 0 1 0 83 9 782
2020-07-26 0 0 0 93 11 234
2020-07-27 2 3 0 93 9 667
2020-07-28 0 0 0 98 10 158
2020-07-29 0 1 0 94 10 268
2020-07-30 0 1 0 93 11 155
2020-07-31 0 0 0 88 9 995
Juin 2020 17 60 5 127 452 817
Mai 2020 7 22 3 295 321 652
2020-05-01 0 0 1 256 14 023
2020-05-02 1 1 0 203 11 018
2020-05-03 0 0 0 196 11 059
2020-05-04 0 1 0 219 12 362
2020-05-05 0 0 0 118 9 025
2020-05-06 0 0 1 207 9 203
2020-05-07 0 4 0 226 9 310
2020-05-08 0 0 0 247 12 323
2020-05-09 0 2 0 241 11 845
2020-05-10 0 4 0 245 13 234
2020-05-11 0 1 0 238 7 557
2020-05-12 0 1 0 241 9 777
2020-05-13 0 1 0 295 11 812
2020-05-14 6 6 0 249 13 287
2020-05-15 0 0 0 226 13 447
2020-05-16 0 0 0 172 12 505
2020-05-17 0 0 0 120 10 079
2020-05-18 0 0 0 130 10 552
2020-05-19 0 0 0 131 10 117
2020-05-20 0 1 0 107 7 233
2020-05-21 0 0 1 52 7 639
2020-05-22 0 0 0 51 9 754
2020-05-23 0 0 0 57 7 435
2020-05-24 0 0 0 57 7 298
2020-05-25 0 0 0 74 5 034
2020-05-26 0 0 0 82 7 744
2020-05-27 0 0 0 107 11 791
2020-05-28 0 0 0 100 9 031
2020-05-29 0 0 0 104 9 467
2020-05-30 0 0 0 108 15 345
2020-05-31 0 0 0 116 11 346
Avril 2020 10 47 1 189 300 030
2020-04-01 1 10 0 107 11 966
2020-04-02 0 2 0 114 10 310
2020-04-03 0 1 0 103 9 502
2020-04-04 0 2 0 128 9 178
2020-04-05 0 0 0 114 10 662
2020-04-06 4 7 0 109 8 396
2020-04-07 0 3 0 117 8 692
2020-04-08 0 0 0 104 13 455
2020-04-09 0 1 0 114 10 600
2020-04-10 0 0 0 112 7 011
2020-04-11 0 0 0 101 8 460
2020-04-12 1 2 0 120 10 038
2020-04-13 0 1 0 108 11 715
2020-04-14 0 1 0 107 13 383
2020-04-15 0 1 0 93 9 161
2020-04-16 1 2 0 99 8 579
2020-04-17 0 0 0 106 6 755
2020-04-18 0 2 0 96 7 568
2020-04-19 0 0 0 113 5 193
2020-04-20 0 0 0 189 9 427
2020-04-21 0 0 0 183 10 619
2020-04-22 0 1 0 157 9 559
2020-04-23 1 2 0 99 9 058
2020-04-24 0 5 0 99 9 065
2020-04-25 0 0 0 97 8 270
2020-04-26 0 0 0 94 26 246
2020-04-27 0 0 1 93 9 286
2020-04-28 1 2 0 100 8 564
2020-04-29 1 2 0 105 9 760
2020-04-30 0 0 0 120 9 552
Mars 2020 24 253 3 199 467 854
2020-03-01 0 7 0 104 10 346
2020-03-02 0 5 0 126 6 471
2020-03-03 3 17 1 107 4 913
2020-03-04 0 10 0 116 5 122
2020-03-05 1 12 0 143 8 779
2020-03-06 0 9 0 144 11 988
2020-03-07 0 2 0 123 11 124
2020-03-08 0 5 0 122 13 134
2020-03-09 0 10 0 117 13 459
2020-03-10 2 5 0 114 11 164
2020-03-11 0 4 0 105 8 274
2020-03-12 0 10 0 199 11 093
2020-03-13 0 9 0 186 12 284
2020-03-14 1 11 0 189 12 386
2020-03-15 1 12 1 189 11 665
2020-03-16 1 3 0 173 10 318
2020-03-17 0 8 0 116 9 643
2020-03-18 0 2 0 107 8 287
2020-03-19 0 4 0 105 10 639
2020-03-20 0 0 0 116 10 883
2020-03-21 0 4 0 114 10 354
2020-03-22 0 0 0 119 9 230
2020-03-23 3 9 0 112 6 679
2020-03-24 0 7 0 113 47 441
2020-03-25 0 10 0 107 140 101
2020-03-26 5 9 0 119 6 876
2020-03-27 1 6 0 154 6 818
2020-03-28 1 16 0 114 7 190
2020-03-29 2 20 0 105 6 840
2020-03-30 1 13 0 121 11 552
2020-03-31 2 14 1 117 12 801
Février 2020 18 171 9 323 281 798
Janvier 2020 29 279 48 808 474 137
2020-01-01 0 12 0 120 10 073
2020-01-02 1 9 0 127 13 456
2020-01-03 3 8 5 120 7 230
2020-01-04 1 7 2 109 7 682
2020-01-05 0 6 2 116 7 700
2020-01-06 2 9 1 122 10 580
2020-01-07 0 2 3 120 7 752
2020-01-08 1 11 3 117 8 845
2020-01-09 2 13 1 115 11 380
2020-01-10 0 6 1 106 9 117
2020-01-11 0 9 0 188 8 366
2020-01-12 3 17 3 120 9 658
2020-01-13 0 10 1 268 9 745
2020-01-14 2 5 3 625 12 117
2020-01-15 0 1 0 587 10 280
2020-01-16 0 15 2 597 12 766
2020-01-17 2 17 3 575 11 348
2020-01-18 0 9 2 108 11 823
2020-01-19 0 8 1 132 7 576
2020-01-20 0 2 0 589 7 895
2020-01-21 0 4 1 808 8 119
2020-01-22 4 9 0 507 11 803
2020-01-23 0 1 1 383 6 222
2020-01-24 1 15 1 244 6 849
2020-01-25 0 2 1 110 7 819
2020-01-26 2 13 2 118 38 722
2020-01-27 0 6 3 116 167 649
2020-01-28 2 11 3 108 7 008
2020-01-29 2 13 1 114 7 552
2020-01-30 0 17 0 111 7 527
2020-01-31 1 12 2 106 9 478
* 2019 246 3 411 313 446 3 308 531
Décembre 2019 18 159 26 446 351 248
2019-12-01 0 4 1 277 11 373
2019-12-02 1 14 1 135 11 534
2019-12-03 0 5 1 110 9 010
2019-12-04 0 4 2 106 7 741
2019-12-05 0 6 0 330 8 461
2019-12-06 3 13 1 335 12 098
2019-12-07 0 4 0 215 16 251
2019-12-08 0 0 2 114 35 635
2019-12-09 4 16 3 170 9 809
2019-12-10 1 4 0 112 11 124
2019-12-11 0 5 1 299 9 463
2019-12-12 0 3 1 306 9 544
2019-12-13 0 2 0 366 8 347
2019-12-14 0 3 0 446 11 186
2019-12-15 1 13 0 367 10 258
2019-12-16 2 14 0 109 9 322
2019-12-17 0 13 0 127 9 034
2019-12-18 1 5 0 233 9 507
2019-12-19 1 2 4 112 10 126
2019-12-20 0 0 0 104 9 567
2019-12-21 0 6 1 116 10 009
2019-12-22 0 0 1 105 10 019
2019-12-23 0 0 0 125 10 592
2019-12-24 0 2 0 127 11 029
2019-12-25 0 0 0 112 10 531
2019-12-26 0 1 0 138 11 502
2019-12-27 0 3 0 113 14 168
2019-12-28 0 0 4 115 20 305
2019-12-29 4 5 1 119 11 114
2019-12-30 0 7 1 127 5 225
2019-12-31 0 5 1 125 7 364
Novembre 2019 16 245 33 325 524 135
2019-11-01 1 5 3 104 6 570
2019-11-02 0 8 0 112 5 937
2019-11-03 5 17 2 103 5 135
2019-11-04 0 13 4 108 4 364
2019-11-05 1 7 1 101 4 644
2019-11-06 0 19 0 100 7 049
2019-11-07 0 16 0 107 5 602
2019-11-08 0 7 2 100 5 473
2019-11-09 0 10 2 115 4 378
2019-11-10 0 14 1 113 5 596
2019-11-11 2 6 0 98 4 288
2019-11-12 0 12 0 131 4 467
2019-11-13 0 9 1 114 5 320
2019-11-14 1 6 1 125 6 683
2019-11-15 1 13 1 120 4 926
2019-11-16 0 8 0 163 6 256
2019-11-17 0 3 0 134 5 852
2019-11-18 0 1 1 107 5 431
2019-11-19 0 9 4 99 4 758
2019-11-20 1 11 1 102 3 814
2019-11-21 0 6 0 117 9 376
2019-11-22 0 8 0 112 11 663
2019-11-23 0 6 0 101 8 399
2019-11-24 0 4 1 109 9 641
2019-11-25 0 2 2 112 8 759
2019-11-26 2 2 0 114 56 347
2019-11-27 2 6 1 111 123 100
2019-11-28 0 3 1 112 10 114
2019-11-29 0 8 2 110 67 835
2019-11-30 0 6 2 325 112 358
Octobre 2019 24 272 59 121 189 762
Septembre 2019 25 386 54 141 376 708
2019-09-01 1 9 2 105 6 240
2019-09-02 2 23 0 99 4 858
2019-09-03 0 2 3 113 5 936
2019-09-04 1 23 3 106 6 478
2019-09-05 1 13 2 101 4 820
2019-09-06 0 19 1 107 6 729
2019-09-07 1 7 1 101 5 312
2019-09-08 2 30 3 112 7 337
2019-09-09 0 11 1 102 5 572
2019-09-10 0 11 0 100 7 902
2019-09-11 0 19 4 106 7 070
2019-09-12 0 9 1 93 5 907
2019-09-13 0 17 1 104 5 766
2019-09-14 1 20 1 106 8 380
2019-09-15 1 21 1 99 8 495
2019-09-16 0 10 3 103 4 957
2019-09-17 0 4 3 101 4 911
2019-09-18 1 7 3 123 86 629
2019-09-19 0 12 0 124 109 596
2019-09-20 0 17 2 141 8 262
2019-09-21 0 10 0 140 7 838
2019-09-22 1 6 2 112 6 839
2019-09-23 6 10 3 97 8 328
2019-09-24 1 9 3 94 5 944
2019-09-25 0 8 0 97 4 935
2019-09-26 0 12 4 97 6 015
2019-09-27 2 11 0 99 7 899
2019-09-28 3 18 4 99 4 761
2019-09-29 1 9 2 92 4 842
2019-09-30 0 9 1 98 8 150
Août 2019 22 257 31 122 225 760
2019-08-01 0 17 1 101 4 722
2019-08-02 1 16 1 99 5 527
2019-08-03 0 9 0 100 9 242
2019-08-04 0 2 0 92 4 700
2019-08-05 0 4 0 122 3 678
2019-08-06 0 8 0 94 4 677
2019-08-07 0 4 0 98 4 369
2019-08-08 0 5 0 100 6 221
2019-08-09 1 8 0 111 6 677
2019-08-10 0 1 0 99 8 730
2019-08-11 0 10 0 101 6 982
2019-08-12 0 10 1 100 22 525
2019-08-13 1 11 0 99 15 601
2019-08-14 0 10 0 100 10 146
2019-08-15 1 6 2 114 7 279
2019-08-16 1 14 0 98 8 935
2019-08-17 0 6 0 100 8 964
2019-08-18 1 2 1 103 11 513
2019-08-19 3 5 3 92 9 363
2019-08-20 0 0 1 94 4 320
2019-08-21 2 7 4 97 4 019
2019-08-22 0 5 2 95 4 156
2019-08-23 0 3 1 78 7 584
2019-08-24 0 4 1 32 2 644
2019-08-25 1 5 2 91 3 521
2019-08-26 0 9 3 100 5 440
2019-08-27 6 29 2 101 5 306
2019-08-28 1 12 2 92 4 748
2019-08-29 0 7 1 92 4 376
2019-08-30 1 16 0 93 9 018
2019-08-31 2 12 3 98 10 777
Juillet 2019 24 281 62 149 190 301
2019-07-01 4 24 0 104 8 142
2019-07-02 2 16 0 100 8 838
2019-07-03 0 5 0 95 8 928
2019-07-04 0 8 0 91 9 284
2019-07-05 1 10 1 91 6 175
2019-07-06 0 3 0 83 4 015
2019-07-07 0 3 0 89 3 603
2019-07-08 0 20 1 83 4 139
2019-07-09 0 11 0 90 7 781
2019-07-10 1 12 1 84 9 897
2019-07-11 0 15 0 91 7 893
2019-07-12 1 10 0 94 4 561
2019-07-13 0 1 0 88 3 908
2019-07-14 0 4 0 88 7 782
2019-07-15 0 8 0 92 8 996
2019-07-16 0 0 0 84 6 713
2019-07-17 0 7 1 92 7 822
2019-07-18 1 7 1 131 5 964
2019-07-19 3 17 0 88 3 871
2019-07-20 0 7 1 86 4 460
2019-07-21 0 6 1 149 3 654
2019-07-22 1 6 0 116 4 333
2019-07-23 0 3 0 124 2 777
2019-07-24 0 0 0 108 5 144
2019-07-25 1 6 8 136 6 264
2019-07-26 0 7 14 131 6 609
2019-07-27 0 6 4 131 6 579
2019-07-28 0 10 6 129 5 658
2019-07-29 1 17 9 110 5 459
2019-07-30 7 10 6 134 5 038
2019-07-31 1 22 8 142 6 014
Juin 2019 11 171 3 112 246 519
Mai 2019 23 311 10 167 218 891
Avril 2019 21 294 9 174 311 459
2019-04-01 1 11 0 174 7 945
2019-04-02 3 24 0 122 7 494
2019-04-03 1 14 0 142 9 858
2019-04-04 0 8 0 139 10 089
2019-04-05 0 2 0 133 12 161
2019-04-06 1 12 1 133 7 608
2019-04-07 0 6 0 120 7 430
2019-04-08 1 14 1 135 8 563
2019-04-09 0 13 0 137 16 179
2019-04-10 2 17 0 144 19 838
2019-04-11 1 14 1 138 21 613
2019-04-12 0 14 0 119 19 438
2019-04-13 1 11 3 51 7 170
2019-04-14 0 4 0 64 8 623
2019-04-15 0 0 0 61 10 243
2019-04-16 0 1 0 55 8 411
2019-04-17 0 2 0 72 6 278
2019-04-18 1 9 0 62 9 286
2019-04-19 2 8 0 70 7 179
2019-04-20 0 5 0 129 4 258
2019-04-21 0 11 1 152 3 979
2019-04-22 2 7 0 170 5 151
2019-04-23 0 9 0 59 8 482
2019-04-24 0 17 0 78 9 241
2019-04-25 1 13 2 57 13 826
2019-04-26 0 6 0 58 15 753
2019-04-27 0 2 0 47 12 881
2019-04-28 3 17 0 58 10 108
2019-04-29 1 20 0 57 11 176
2019-04-30 0 3 0 58 11 198
Mars 2019 22 372 16 142 344 146
2019-03-01 0 30 0 102 3 220
2019-03-02 0 23 0 102 3 097
2019-03-03 0 4 0 99 2 763
2019-03-04 0 5 0 105 2 518
2019-03-05 0 11 0 99 3 314
2019-03-06 0 11 1 97 5 983
2019-03-07 1 6 2 102 6 254
2019-03-08 1 24 1 100 9 845
2019-03-09 1 11 1 104 9 974
2019-03-10 0 18 0 109 12 925
2019-03-11 3 18 1 124 22 284
2019-03-12 0 14 0 120 15 724
2019-03-13 1 23 1 125 13 212
2019-03-14 0 7 1 132 13 861
2019-03-15 2 17 1 112 12 323
2019-03-16 0 6 1 135 11 288
2019-03-17 0 6 0 129 10 798
2019-03-18 1 8 0 122 10 562
2019-03-19 1 7 0 126 9 470
2019-03-20 1 16 1 122 10 084
2019-03-21 1 12 1 128 13 887
2019-03-22 0 4 0 129 13 984
2019-03-23 2 9 0 123 14 498
2019-03-24 4 13 0 129 36 957
2019-03-25 0 14 0 134 17 651
2019-03-26 1 11 1 126 9 572
2019-03-27 0 4 0 56 8 627
2019-03-28 0 14 1 142 8 864
2019-03-29 0 5 0 126 11 607
2019-03-30 0 2 0 131 10 223
2019-03-31 2 19 2 129 8 777
Février 2019 18 288 4 110 142 132
Janvier 2019 22 375 6 113 187 470
* 2018 338 6 176 81 641 2 624 946
Décembre 2018 43 306 8 253 421 582
2018-12-01 1 13 0 108 10 961
2018-12-02 0 3 1 109 14 766
2018-12-03 0 17 0 108 18 344
2018-12-04 0 4 0 111 20 929
2018-12-05 1 19 1 111 11 950
2018-12-06 8 18 0 111 14 660
2018-12-07 13 27 0 107 14 549
2018-12-08 2 12 0 100 8 121
2018-12-09 4 26 0 97 8 912
2018-12-10 0 12 0 94 9 173
2018-12-11 1 7 0 104 7 972
2018-12-12 0 13 0 253 12 240
2018-12-13 2 10 0 245 6 172
2018-12-14 0 17 1 134 6 149
2018-12-15 0 6 0 160 5 846
2018-12-16 2 14 1 106 5 984
2018-12-17 2 10 0 104 5 353
2018-12-18 0 9 0 98 5 314
2018-12-19 0 5 0 100 3 727
2018-12-20 0 3 0 96 2 596
2018-12-21 0 5 0 23 4 142
2018-12-22 0 2 0 24 6 219
2018-12-23 0 5 0 21 8 400
2018-12-24 0 2 0 18 10 302
2018-12-25 1 2 0 23 11 913
2018-12-26 0 7 0 22 8 611
2018-12-27 1 1 1 24 17 549
2018-12-28 0 2 2 24 151 295
2018-12-29 5 13 0 49 2 922
2018-12-30 0 17 1 49 3 800
2018-12-31 0 5 0 46 2 711
Novembre 2018 26 467 9 641 383 363
2018-11-01 1 9 1 134 8 941
2018-11-02 0 12 0 138 13 320
2018-11-03 1 7 1 144 15 011
2018-11-04 5 36 0 176 20 866
2018-11-05 2 19 0 163 16 221
2018-11-06 1 18 1 130 15 015
2018-11-07 0 18 0 239 17 530
2018-11-08 1 13 1 200 11 015
2018-11-09 0 18 0 265 17 559
2018-11-10 1 13 1 262 23 662
2018-11-11 0 10 0 161 21 706
2018-11-12 1 22 0 274 33 147
2018-11-13 0 25 0 425 19 047
2018-11-14 1 18 1 550 12 156
2018-11-15 1 8 1 641 16 863
2018-11-16 1 14 0 168 16 611
2018-11-17 0 5 1 577 19 696
2018-11-18 0 5 0 184 9 470
2018-11-19 1 10 1 373 15 763
2018-11-20 1 23 0 257 11 354
2018-11-21 2 8 0 110 5 798
2018-11-22 0 9 0 89 5 367
2018-11-23 1 22 0 92 4 528
2018-11-24 1 21 0 30 2 309
2018-11-25 2 13 0 43 4 520
2018-11-26 2 26 0 34 2 339
2018-11-27 0 21 0 42 2 307
2018-11-28 0 20 0 116 5 597
2018-11-29 0 9 0 117 6 218
2018-11-30 0 15 0 109 9 427
Octobre 2018 34 527 6 321 248 725
Septembre 2018 34 641 10 127 216 306
2018-09-01 0 20 0 24 4 424
2018-09-02 0 20 0 65 4 793
2018-09-03 3 22 0 85 7 578
2018-09-04 0 24 0 84 8 791
2018-09-05 1 20 0 84 9 905
2018-09-06 0 36 1 83 11 031
2018-09-07 1 20 0 87 10 613
2018-09-08 5 19 0 83 13 818
2018-09-09 0 26 0 92 9 656
2018-09-10 0 27 1 20 3 224
2018-09-11 4 21 1 27 4 264
2018-09-12 1 51 1 24 2 429
2018-09-13 3 46 2 20 7 949
2018-09-14 1 20 0 91 11 369
2018-09-15 0 14 0 95 9 802
2018-09-16 1 34 0 104 6 636
2018-09-17 0 20 0 94 6 787
2018-09-18 0 13 0 99 5 082
2018-09-19 1 16 0 101 8 725
2018-09-20 3 10 1 105 5 461
2018-09-21 2 27 1 93 5 926
2018-09-22 1 28 0 115 6 599
2018-09-23 0 15 0 102 6 921
2018-09-24 1 14 1 103 6 887
2018-09-25 0 17 0 114 7 190
2018-09-26 1 10 0 111 7 736
2018-09-27 0 14 0 116 7 667
2018-09-28 4 13 0 127 6 767
2018-09-29 0 7 1 99 2 850
2018-09-30 1 17 0 36 5 426
Août 2018 32 583 16 101 188 648
Juillet 2018 21 386 3 104 182 475
2018-07-01 0 17 0 98 5 851
2018-07-02 0 3 1 93 5 331
2018-07-03 0 9 0 102 6 039
2018-07-04 3 21 0 95 8 377
2018-07-05 0 5 0 89 5 211
2018-07-06 5 16 0 94 5 550
2018-07-07 0 10 0 92 5 422
2018-07-08 0 12 0 94 7 624
2018-07-09 1 11 1 93 5 229
2018-07-10 1 8 0 93 5 538
2018-07-11 0 19 0 86 5 102
2018-07-12 0 9 1 84 4 916
2018-07-13 0 17 0 82 5 453
2018-07-14 0 9 0 90 4 210
2018-07-15 0 7 0 82 5 017
2018-07-16 0 26 0 90 8 111
2018-07-17 1 19 0 102 5 632
2018-07-18 4 27 0 102 6 009
2018-07-19 1 28 0 99 6 343
2018-07-20 1 15 0 104 6 087
2018-07-21 1 13 0 93 6 072
2018-07-22 1 24 0 91 5 850
2018-07-23 0 12 0 97 6 595
2018-07-24 0 5 0 94 4 057
2018-07-25 0 5 0 96 6 576
2018-07-26 1 2 0 92 6 460
2018-07-27 0 11 0 89 6 309
2018-07-28 0 4 0 91 6 042
2018-07-29 0 5 0 93 5 366
2018-07-30 1 4 0 94 6 266
2018-07-31 0 13 0 87 5 830
Juin 2018 31 442 3 110 213 303
Mai 2018 21 422 4 107 174 393
Avril 2018 25 564 5 104 159 849
2018-04-01 5 38 1 78 19 803
2018-04-02 1 37 0 81 4 900
2018-04-03 0 28 0 80 4 480
2018-04-04 1 26 0 88 4 206
2018-04-05 3 35 0 84 4 988
2018-04-06 0 18 0 82 4 984
2018-04-07 0 8 0 86 4 144
2018-04-08 2 17 0 90 4 595
2018-04-09 0 32 0 83 4 451
2018-04-10 0 21 0 84 4 551
2018-04-11 0 12 0 93 4 320
2018-04-12 0 21 0 104 5 608
2018-04-13 1 10 0 85 4 997
2018-04-14 2 39 1 91 4 749
2018-04-15 2 21 0 92 5 393
2018-04-16 1 13 0 92 5 327
2018-04-17 0 9 0 88 4 518
2018-04-18 0 12 1 89 4 185
2018-04-19 0 7 0 16 1 456
2018-04-20 0 6 0 82 2 948
2018-04-21 0 6 0 81 4 974
2018-04-22 0 3 0 83 4 887
2018-04-23 2 9 0 85 5 259
2018-04-24 3 20 0 82 4 998
2018-04-25 0 16 1 81 5 180
2018-04-26 0 11 0 78 4 558
2018-04-27 1 23 1 86 10 368
2018-04-28 0 26 0 88 5 449
2018-04-29 1 20 0 86 4 042
2018-04-30 0 20 0 99 5 531
Mars 2018 20 634 4 96 152 933
2018-03-01 0 7 0 20 8 226
2018-03-02 0 23 0 16 1 189
2018-03-03 0 28 0 19 1 566
2018-03-04 1 44 0 21 1 915
2018-03-05 0 11 0 17 1 328
2018-03-06 0 10 0 75 1 912
2018-03-07 1 21 0 89 4 461
2018-03-08 0 18 0 83 4 381
2018-03-09 0 14 0 94 4 761
2018-03-10 0 22 0 87 5 080
2018-03-11 1 24 0 90 6 619
2018-03-12 4 69 2 79 4 642
2018-03-13 2 36 1 88 5 239
2018-03-14 1 25 0 90 4 987
2018-03-15 2 9 0 81 4 572
2018-03-16 0 7 0 77 4 268
2018-03-17 0 9 0 81 4 271
2018-03-18 0 13 0 91 4 435
2018-03-19 2 12 0 79 4 301
2018-03-20 0 30 0 87 4 317
2018-03-21 0 7 0 86 4 027
2018-03-22 1 19 0 84 4 514
2018-03-23 0 14 0 91 4 486
2018-03-24 0 6 0 81 4 292
2018-03-25 0 11 0 78 4 516
2018-03-26 2 16 0 86 4 584
2018-03-27 0 7 0 80 4 375
2018-03-28 0 22 0 80 4 705
2018-03-29 0 27 0 79 4 483
2018-03-30 1 40 1 82 4 671
2018-03-31 2 33 0 96 25 810
Février 2018 25 631 7 93 121 912
Janvier 2018 26 573 6 94 161 457
2018-01-01 1 13 0 81 3 873
2018-01-02 0 35 0 86 4 281
2018-01-03 0 16 0 84 4 474
2018-01-04 0 12 0 88 3 657
2018-01-05 0 25 0 83 5 021
2018-01-06 1 14 1 84 5 114
2018-01-07 3 35 0 78 5 039
2018-01-08 0 12 0 91 4 838
2018-01-09 2 43 1 88 5 141
2018-01-10 0 18 0 87 5 299
2018-01-11 0 6 0 74 2 983
2018-01-12 1 12 1 15 1 584
2018-01-13 4 36 0 18 1 661
2018-01-14 2 33 0 27 2 978
2018-01-15 0 10 0 22 2 126
2018-01-16 0 19 0 18 1 286
2018-01-17 0 6 0 16 1 525
2018-01-18 0 13 1 77 2 416
2018-01-19 0 24 0 88 4 882
2018-01-20 1 10 0 83 4 920
2018-01-21 0 14 0 86 5 414
2018-01-22 0 15 0 88 5 074
2018-01-23 0 21 0 91 4 662
2018-01-24 1 8 0 17 13 946
2018-01-25 0 11 0 80 24 972
2018-01-26 0 13 0 91 3 885
2018-01-27 2 12 2 85 6 401
2018-01-28 6 32 0 92 7 019
2018-01-29 1 12 0 86 5 701
2018-01-30 0 20 0 94 5 869
2018-01-31 1 23 0 88 5 416
* 2017 346 6 100 56 180 1 675 168
Décembre 2017 37 499 6 91 136 063
2017-12-01 1 27 0 85 5 032
2017-12-02 1 21 0 81 4 462
2017-12-03 0 17 0 91 4 582
2017-12-04 0 10 0 90 4 385
2017-12-05 0 13 0 80 3 786
2017-12-06 0 15 0 79 3 217
2017-12-07 1 13 1 73 4 202
2017-12-08 0 5 0 71 4 487
2017-12-09 1 1 1 75 4 265
2017-12-10 2 15 1 80 5 206
2017-12-11 2 21 0 73 4 933
2017-12-12 3 44 0 71 5 142
2017-12-13 2 19 0 75 4 201
2017-12-14 0 16 0 78 4 162
2017-12-15 3 15 1 73 4 050
2017-12-16 1 23 0 73 4 372
2017-12-17 6 30 0 78 4 718
2017-12-18 2 22 0 73 4 383
2017-12-19 1 12 0 75 3 880
2017-12-20 1 18 0 75 4 061
2017-12-21 0 6 0 80 4 040
2017-12-22 0 8 0 78 5 188
2017-12-23 1 10 0 72 4 724
2017-12-24 1 4 0 75 4 594
2017-12-25 1 9 0 75 4 387
2017-12-26 0 9 2 84 4 348
2017-12-27 1 26 0 75 4 354
2017-12-28 4 31 0 89 4 670
2017-12-29 0 19 0 82 4 453
2017-12-30 1 13 0 79 3 800
2017-12-31 1 7 0 75 3 979
Novembre 2017 37 675 6 93 169 670
2017-11-01 3 9 0 77 4 022
2017-11-02 0 22 0 71 4 259
2017-11-03 0 11 0 82 4 272
2017-11-04 0 3 0 76 3 820
2017-11-05 3 29 2 77 4 573
2017-11-06 6 37 1 81 5 440
2017-11-07 0 24 0 74 2 841
2017-11-08 1 34 1 83 6 609
2017-11-09 0 19 0 79 3 795
2017-11-10 1 17 0 77 5 155
2017-11-11 2 32 0 75 4 737
2017-11-12 4 45 0 77 4 783
2017-11-13 1 20 1 77 4 342
2017-11-14 0 9 0 80 4 249
2017-11-15 0 14 0 77 3 973
2017-11-16 0 24 0 73 4 676
2017-11-17 1 21 0 75 4 258
2017-11-18 5 27 0 69 3 974
2017-11-19 0 24 0 79 4 936
2017-11-20 1 23 0 87 4 575
2017-11-21 0 5 0 83 5 092
2017-11-22 1 16 1 92 3 731
2017-11-23 2 24 0 86 5 187
2017-11-24 0 33 0 81 5 193
2017-11-25 0 13 0 79 4 469
2017-11-26 1 16 0 83 4 212
2017-11-27 2 54 0 80 4 643
2017-11-28 2 14 0 93 13 745
2017-11-29 1 23 0 89 28 566
2017-11-30 0 33 0 93 5 543
Octobre 2017 15 426 2 93 151 449
Septembre 2017 28 548 5 94 135 543
2017-09-01 0 19 0 85 4 606
2017-09-02 6 27 1 81 5 694
2017-09-03 0 13 0 80 4 704
2017-09-04 0 16 0 73 3 541
2017-09-05 1 31 0 70 4 047
2017-09-06 0 12 0 74 8 718
2017-09-07 1 10 0 72 3 635
2017-09-08 2 11 0 73 3 838
2017-09-09 0 25 0 73 3 496
2017-09-10 1 20 1 77 4 556
2017-09-11 3 16 0 94 4 101
2017-09-12 0 23 0 80 4 866
2017-09-13 1 11 1 76 4 485
2017-09-14 0 12 0 79 4 369
2017-09-15 2 27 1 85 4 589
2017-09-16 1 10 1 81 3 899
2017-09-17 0 28 0 85 4 424
2017-09-18 2 29 0 79 5 214
2017-09-19 1 25 0 76 4 323
2017-09-20 2 9 0 74 4 217
2017-09-21 1 13 0 75 4 677
2017-09-22 0 19 0 77 3 928
2017-09-23 0 15 0 71 4 378
2017-09-24 1 23 0 75 4 483
2017-09-25 0 32 0 82 4 657
2017-09-26 0 21 0 81 4 174
2017-09-27 0 13 0 76 4 562
2017-09-28 0 8 0 83 4 632
2017-09-29 3 23 0 79 4 537
2017-09-30 0 7 0 77 4 193
Août 2017 29 384 6 99 148 097
2017-08-01 0 9 0 68 3 543
2017-08-02 0 12 1 66 2 932
2017-08-03 0 7 0 64 3 100
2017-08-04 1 8 0 83 3 375
2017-08-05 1 8 0 81 4 004
2017-08-06 2 6 1 80 3 731
2017-08-07 6 14 1 85 3 850
2017-08-08 2 3 0 76 4 998
2017-08-09 0 13 1 72 4 403
2017-08-10 3 6 0 75 3 696
2017-08-11 0 6 0 74 2 479
2017-08-12 0 7 0 81 4 043
2017-08-13 0 9 0 73 4 128
2017-08-14 0 14 0 73 3 594
2017-08-15 2 7 0 71 3 835
2017-08-16 1 11 0 70 3 779
2017-08-17 0 13 0 82 3 941
2017-08-18 0 7 0 82 3 689
2017-08-19 0 8 0 19 1 560
2017-08-20 0 11 0 85 2 353
2017-08-21 0 15 0 99 4 536
2017-08-22 2 37 0 91 4 987
2017-08-23 0 13 0 81 4 153
2017-08-24 5 24 0 87 5 297
2017-08-25 1 31 0 79 4 356
2017-08-26 0 12 0 85 4 846
2017-08-27 1 23 0 83 6 285
2017-08-28 0 21 0 98 6 070
2017-08-29 0 5 0 85 5 964
2017-08-30 1 14 1 79 25 924
2017-08-31 1 10 1 82 4 646
Juillet 2017 25 490 5 87 176 472
Juin 2017 33 603 4 89 156 248
Mai 2017 26 470 2 99 181 189
Avril 2017 31 490 5 180 139 896
Mars 2017 27 432 3 119 90 981
Février 2017 31 587 7 87 74 924
Janvier 2017 27 496 5 80 114 636
* 2016 389 7 721 79 245 2 075 605
Décembre 2016 34 533 2 170 118 206
Novembre 2016 34 586 6 245 122 991
2016-11-01 0 34 0 79 3 768
2016-11-02 1 38 0 64 4 674
2016-11-03 0 17 0 50 3 172
2016-11-04 3 43 1 52 3 641
2016-11-05 0 23 1 54 4 697
2016-11-06 2 19 0 50 3 669
2016-11-07 1 24 0 81 3 628
2016-11-08 1 15 0 83 5 212
2016-11-09 0 11 1 52 2 529
2016-11-10 0 16 0 33 3 252
2016-11-11 1 17 0 66 3 953
2016-11-12 3 25 1 66 4 075
2016-11-13 1 4 0 62 4 031
2016-11-14 2 21 0 55 3 434
2016-11-15 0 20 0 245 4 465
2016-11-16 3 26 1 70 4 516
2016-11-17 0 26 0 64 4 350
2016-11-18 1 18 0 70 3 943
2016-11-19 0 16 0 68 4 222
2016-11-20 3 21 0 65 3 980
2016-11-21 0 14 0 60 3 884
2016-11-22 0 15 0 48 3 315
2016-11-23 1 14 0 86 4 910
2016-11-24 1 13 0 64 4 600
2016-11-25 4 30 0 68 4 613
2016-11-26 1 12 0 66 5 051
2016-11-27 3 14 1 59 4 515
2016-11-28 1 6 0 59 3 726
2016-11-29 1 29 0 61 5 179
2016-11-30 0 5 0 75 3 987
Octobre 2016 43 726 7 191 160 217
Septembre 2016 26 657 9 85 157 449
Août 2016 31 721 9 114 169 873
Juillet 2016 19 513 3 58 166 690
2016-07-01 0 12 0 45 7 913
2016-07-02 1 14 0 53 5 460
2016-07-03 0 12 0 43 5 640
2016-07-04 0 21 0 51 5 125
2016-07-05 0 19 0 53 19 299
2016-07-06 1 26 0 47 4 798
2016-07-07 1 14 1 45 5 226
2016-07-08 0 17 0 29 4 376
2016-07-09 2 9 1 33 3 581
2016-07-10 0 17 0 30 3 953
2016-07-11 0 19 0 33 3 994
2016-07-12 0 6 0 34 4 003
2016-07-13 0 6 0 29 3 703
2016-07-14 0 9 0 36 3 393
2016-07-15 0 12 0 46 3 985
2016-07-16 0 8 0 49 3 862
2016-07-17 1 15 0 46 6 224
2016-07-18 3 49 0 48 9 490
2016-07-19 5 19 0 58 12 133
2016-07-20 1 27 0 53 6 421
2016-07-21 0 15 0 44 4 051
2016-07-22 1 24 0 35 2 980
2016-07-23 0 9 0 46 2 786
2016-07-24 0 5 0 50 3 313
2016-07-25 0 18 0 48 3 778
2016-07-26 1 16 0 49 3 234
2016-07-27 1 13 1 45 3 378
2016-07-28 0 28 0 42 4 140
2016-07-29 0 14 0 54 4 296
2016-07-30 0 16 0 49 6 668
2016-07-31 1 24 0 56 5 487
Juin 2016 30 565 5 53 211 715
Mai 2016 40 1 116 8 94 166 514
2016-05-01 0 19 0 47 4 888
2016-05-02 0 14 0 22 13 022
2016-05-03 0 23 0 27 4 139
2016-05-04 1 18 1 27 2 753
2016-05-05 1 23 0 20 2 962
2016-05-06 1 19 0 19 3 036
2016-05-07 5 34 1 37 3 070
2016-05-08 1 30 0 33 3 881
2016-05-09 1 24 0 41 3 841
2016-05-10 1 14 0 23 3 570
2016-05-11 0 14 0 23 3 294
2016-05-12 1 24 1 24 3 901
2016-05-13 1 32 0 25 4 235
2016-05-14 3 35 0 26 4 289
2016-05-15 1 48 0 43 3 972
2016-05-16 1 44 0 86 5 681
2016-05-17 3 23 0 93 5 996
2016-05-18 0 38 0 91 5 828
2016-05-19 1 45 0 80 5 615
2016-05-20 1 21 0 94 5 467
2016-05-21 0 14 0 72 6 411
2016-05-22 4 56 1 37 16 571
2016-05-23 1 52 0 42 5 079
2016-05-24 0 81 0 50 4 705
2016-05-25 2 86 1 47 5 213
2016-05-26 3 102 1 47 4 888
2016-05-27 1 72 1 42 4 598
2016-05-28 0 23 0 42 4 412
2016-05-29 3 34 0 49 4 569
2016-05-30 1 38 1 88 10 787
2016-05-31 2 16 0 46 5 841
Avril 2016 27 529 7 65 155 208
Mars 2016 35 513 11 88 224 056
2016-03-01 0 6 0 84 7 045
2016-03-02 1 11 1 83 17 011
2016-03-03 0 7 0 79 6 329
2016-03-04 1 18 0 71 5 591
2016-03-05 0 8 0 68 5 241
2016-03-06 4 24 2 77 5 361
2016-03-07 0 24 0 76 5 677
2016-03-08 0 25 0 79 5 918
2016-03-09 1 32 0 88 5 988
2016-03-10 1 14 0 68 5 103
2016-03-11 2 24 0 71 5 694
2016-03-12 1 12 2 75 5 118
2016-03-13 2 17 0 76 5 419
2016-03-14 1 25 0 24 3 103
2016-03-15 1 18 0 24 3 559
2016-03-16 1 11 0 19 2 822
2016-03-17 0 11 0 18 2 814
2016-03-18 0 15 0 74 8 907
2016-03-19 1 8 2 84 11 132
2016-03-20 4 42 2 23 4 754
2016-03-21 0 17 0 86 21 637
2016-03-22 2 11 0 31 3 560
2016-03-23 0 6 1 80 6 777
2016-03-24 2 23 0 70 6 789
2016-03-25 1 7 0 63 5 275
2016-03-26 0 10 0 75 7 097
2016-03-27 1 10 0 29 4 648
2016-03-28 4 14 1 65 8 721
2016-03-29 1 16 0 70 7 413
2016-03-30 0 15 0 66 20 524
2016-03-31 3 32 0 64 9 029
Février 2016 35 640 4 96 192 454
Janvier 2016 35 622 8 95 230 232
2016-01-01 1 38 0 74 6 938
2016-01-02 5 14 0 62 4 266
2016-01-03 1 10 0 73 4 160
2016-01-04 1 17 1 74 5 076
2016-01-05 2 22 0 81 6 676
2016-01-06 0 16 1 73 2 487
2016-01-07 2 18 1 73 16 041
2016-01-08 1 18 1 68 8 960
2016-01-09 0 15 0 83 5 138
2016-01-10 2 38 0 80 5 949
2016-01-11 2 44 0 77 6 900
2016-01-12 0 18 0 77 7 023
2016-01-13 1 29 1 83 8 300
2016-01-14 1 17 0 94 10 452
2016-01-15 1 20 0 90 7 501
2016-01-16 0 35 0 95 11 508
2016-01-17 0 32 0 85 12 436
2016-01-18 1 14 0 81 15 167
2016-01-19 1 23 0 83 13 475
2016-01-20 1 20 0 79 9 097
2016-01-21 0 9 0 75 7 399
2016-01-22 1 8 0 71 7 610
2016-01-23 0 18 0 73 5 798
2016-01-24 1 20 0 66 5 545
2016-01-25 4 14 0 74 4 580
2016-01-26 1 14 0 75 6 897
2016-01-27 1 11 1 80 5 561
2016-01-28 1 22 0 83 5 191
2016-01-29 0 14 0 73 4 905
2016-01-30 1 14 1 81 4 215
2016-01-31 2 20 1 64 4 981
* 2015 373 6 684 79 100 1 549 803
Décembre 2015 28 499 7 68 140 303
Novembre 2015 40 724 5 35 146 607
2015-11-01 1 18 0 27 4 452
2015-11-02 0 9 0 24 5 327
2015-11-03 1 7 0 22 11 240
2015-11-04 0 0 0 18 11 102
2015-11-05 0 4 0 24 12 062
2015-11-06 1 19 0 20 6 702
2015-11-07 7 38 0 21 3 288
2015-11-08 0 25 0 20 5 256
2015-11-09 0 32 0 22 3 384
2015-11-10 0 11 0 21 2 914
2015-11-11 0 8 0 22 2 384
2015-11-12 0 24 0 30 2 736
2015-11-13 0 32 0 20 2 709
2015-11-14 2 21 1 24 3 133
2015-11-15 2 28 0 21 18 160
2015-11-16 0 28 0 22 4 664
2015-11-17 0 22 0 35 3 181
2015-11-18 6 48 1 20 3 200
2015-11-19 1 28 0 29 3 049
2015-11-20 10 39 2 20 2 941
2015-11-21 1 10 0 17 3 452
2015-11-22 0 33 0 18 4 436
2015-11-23 1 21 1 32 4 524
2015-11-24 1 28 0 23 5 198
2015-11-25 1 23 0 19 4 024
2015-11-26 1 29 0 15 2 788
2015-11-27 0 39 0 16 3 090
2015-11-28 1 29 0 20 2 052
2015-11-29 1 29 0 18 2 495
2015-11-30 2 42 0 24 2 664
Octobre 2015 32 760 10 84 227 528
Septembre 2015 40 948 13 100 169 012
Août 2015 36 566 12 61 119 954
2015-08-01 2 13 0 18 2 717
2015-08-02 0 7 0 13 2 055
2015-08-03 7 20 2 15 2 199
2015-08-04 1 9 0 40 3 590
2015-08-05 0 13 0 16 2 911
2015-08-06 0 5 0 14 2 574
2015-08-07 0 22 0 17 3 967
2015-08-08 0 14 0 17 3 023
2015-08-09 5 32 1 18 2 992
2015-08-10 2 30 1 17 4 088
2015-08-11 1 16 1 15 2 652
2015-08-12 3 23 0 16 2 544
2015-08-13 0 7 0 14 2 436
2015-08-14 0 8 0 55 4 945
2015-08-15 1 11 0 52 4 116
2015-08-16 0 12 0 13 2 678
2015-08-17 0 2 0 54 3 352
2015-08-18 0 6 0 49 3 473
2015-08-19 0 2 0 29 2 985
2015-08-20 1 13 1 19 3 315
2015-08-21 0 13 0 54 5 973
2015-08-22 0 4 0 13 4 672
2015-08-23 3 21 1 21 3 708
2015-08-24 2 33 2 19 4 048
2015-08-25 1 46 1 25 5 182
2015-08-26 0 17 0 18 5 281
2015-08-27 0 23 0 28 5 761
2015-08-28 1 44 1 17 5 899
2015-08-29 0 37 0 43 5 544
2015-08-30 1 26 1 43 3 953
2015-08-31 5 37 0 61 7 321
Juillet 2015 29 462 7 31 89 666
2015-07-01 0 4 0 13 1 257
2015-07-02 1 2 0 14 1 570
2015-07-03 3 24 0 19 2 798
2015-07-04 0 8 0 18 2 278
2015-07-05 0 18 2 17 3 771
2015-07-06 3 52 0 23 5 662
2015-07-07 0 9 0 19 4 584
2015-07-08 0 10 0 18 3 475
2015-07-09 2 21 0 16 2 090
2015-07-10 0 7 0 18 2 685
2015-07-11 0 9 0 16 2 150
2015-07-12 0 17 0 21 2 665
2015-07-13 0 12 0 21 3 531
2015-07-14 1 11 0 19 5 009
2015-07-15 2 17 0 19 5 094
2015-07-16 1 20 0 18 4 130
2015-07-17 0 11 0 18 3 208
2015-07-18 2 15 1 21 3 167
2015-07-19 0 22 0 16 2 520
2015-07-20 0 13 0 16 2 374
2015-07-21 0 8 1 18 2 140
2015-07-22 1 19 0 14 2 340
2015-07-23 5 18 1 19 2 644
2015-07-24 2 29 1 19 2 376
2015-07-25 1 26 0 20 2 151
2015-07-26 1 15 0 31 2 342
2015-07-27 2 8 1 17 1 660
2015-07-28 0 16 0 14 2 104
2015-07-29 0 8 0 13 2 648
2015-07-30 2 6 0 17 2 245
2015-07-31 0 7 0 15 2 998
Juin 2015 24 453 5 30 112 317
Mai 2015 30 390 2 24 73 874
Avril 2015 29 408 4 25 95 371
Mars 2015 38 550 7 37 130 116
2015-03-01 6 23 0 17 2 804
2015-03-02 1 11 0 19 6 535
2015-03-03 1 24 0 20 7 827
2015-03-04 1 8 0 21 6 847
2015-03-05 2 12 0 18 4 653
2015-03-06 2 23 1 37 2 453
2015-03-07 0 10 0 14 2 686
2015-03-08 0 19 0 14 2 573
2015-03-09 1 20 0 16 2 393
2015-03-10 1 14 1 14 2 610
2015-03-11 0 8 0 20 2 571
2015-03-12 1 14 0 18 2 502
2015-03-13 0 16 0 20 3 764
2015-03-14 0 8 0 20 4 537
2015-03-15 3 22 1 19 5 142
2015-03-16 0 8 0 14 2 163
2015-03-17 0 16 0 15 1 726
2015-03-18 0 2 0 14 1 638
2015-03-19 2 12 0 21 4 946
2015-03-20 2 14 1 21 7 189
2015-03-21 2 27 1 20 9 145
2015-03-22 1 11 0 27 8 492
2015-03-23 6 18 1 21 6 865
2015-03-24 1 23 1 17 4 732
2015-03-25 0 36 0 24 3 346
2015-03-26 1 33 0 19 3 386
2015-03-27 0 12 0 18 3 367
2015-03-28 0 8 0 20 4 407
2015-03-29 4 47 0 17 4 241
2015-03-30 0 38 0 15 2 577
2015-03-31 0 13 0 24 1 999
Février 2015 15 434 2 24 123 854
Janvier 2015 32 490 5 44 121 201
2015-01-01 2 23 0 19 3 144
2015-01-02 0 16 0 15 4 048
2015-01-03 0 15 0 22 3 759
2015-01-04 0 4 0 19 3 288
2015-01-05 2 20 0 15 4 716
2015-01-06 0 5 0 22 4 665
2015-01-07 7 37 1 20 4 235
2015-01-08 0 17 0 18 5 827
2015-01-09 2 10 0 21 3 910
2015-01-10 0 16 0 18 3 671
2015-01-11 0 8 0 20 4 832
2015-01-12 4 17 0 21 3 973
2015-01-13 2 14 0 14 2 410
2015-01-14 0 16 0 15 3 118
2015-01-15 2 38 1 17 3 532
2015-01-16 0 23 0 18 3 617
2015-01-17 0 13 0 17 2 699
2015-01-18 2 13 0 18 3 678
2015-01-19 5 16 0 16 3 676
2015-01-20 0 12 1 19 3 624
2015-01-21 1 12 0 20 2 778
2015-01-22 0 8 1 16 6 250
2015-01-23 1 18 0 18 2 801
2015-01-24 0 14 0 44 3 349
2015-01-25 0 8 0 18 6 193
2015-01-26 0 25 0 21 4 761
2015-01-27 1 23 1 18 6 578
2015-01-28 0 4 0 16 2 032
2015-01-29 0 15 0 15 3 742
2015-01-30 0 16 0 13 2 970
2015-01-31 1 14 0 14 3 325
* 2014 428 7 364 58 58 2 478 164
Décembre 2014 24 360 4 33 191 610
2014-12-01 0 4 0 21 6 641
2014-12-02 2 17 0 26 7 244
2014-12-03 0 9 0 31 7 910
2014-12-04 1 11 0 26 8 107
2014-12-05 1 10 1 23 7 074
2014-12-06 0 6 0 33 8 321
2014-12-07 1 18 0 20 5 632
2014-12-08 1 17 0 24 7 793
2014-12-09 1 19 0 21 5 936
2014-12-10 0 8 0 17 5 092
2014-12-11 0 6 0 20 5 467
2014-12-12 0 6 0 27 7 318
2014-12-13 1 17 0 23 10 029
2014-12-14 1 6 0 24 6 467
2014-12-15 1 12 0 23 8 102
2014-12-16 0 12 0 20 6 013
2014-12-17 0 3 0 22 6 999
2014-12-18 0 5 1 22 6 892
2014-12-19 1 10 0 21 7 099
2014-12-20 1 13 0 19 7 148
2014-12-21 0 2 0 27 4 864
2014-12-22 0 2 0 23 5 428
2014-12-23 2 12 0 20 5 923
2014-12-24 1 11 0 21 4 951
2014-12-25 0 8 1 19 4 762
2014-12-26 6 28 0 17 4 609
2014-12-27 0 21 0 24 6 807
2014-12-28 3 51 1 19 4 079
2014-12-29 0 9 0 17 3 335
2014-12-30 0 3 0 16 2 402
2014-12-31 0 4 0 18 3 166
Novembre 2014 37 572 7 46 525 858
2014-11-01 0 10 0 39 31 767
2014-11-02 4 28 1 38 30 905
2014-11-03 2 15 1 46 35 171
2014-11-04 0 10 0 45 33 110
2014-11-05 1 19 0 42 33 257
2014-11-06 1 32 0 37 27 962
2014-11-07 3 33 0 40 33 652
2014-11-08 2 9 0 45 28 231
2014-11-09 1 24 0 32 22 476
2014-11-10 0 24 0 45 25 456
2014-11-11 0 29 0 35 24 461
2014-11-12 0 13 0 34 21 316
2014-11-13 0 10 0 27 13 857
2014-11-14 0 11 0 28 11 982
2014-11-15 2 21 0 34 10 235
2014-11-16 1 26 0 27 8 102
2014-11-17 2 16 0 25 10 338
2014-11-18 1 10 0 25 9 298
2014-11-19 0 8 0 25 10 140
2014-11-20 4 18 0 24 9 332
2014-11-21 0 12 1 26 11 050
2014-11-22 0 14 1 26 8 358
2014-11-23 2 15 1 22 6 229
2014-11-24 4 35 0 26 9 487
2014-11-25 0 14 0 30 14 490
2014-11-26 3 20 1 25 10 319
2014-11-27 0 31 0 28 9 632
2014-11-28 2 22 0 24 7 672
2014-11-29 2 27 1 25 9 524
2014-11-30 0 16 0 22 8 049
Octobre 2014 45 928 8 58 364 915
Septembre 2014 24 549 8 32 162 413
2014-09-01 1 8 0 24 5 910
2014-09-02 1 12 0 23 5 619
2014-09-03 0 4 0 29 5 993
2014-09-04 2 39 1 24 6 382
2014-09-05 1 16 0 25 7 071
2014-09-06 0 24 0 32 5 116
2014-09-07 1 14 0 17 3 343
2014-09-08 1 16 0 16 2 841
2014-09-09 1 12 0 23 5 898
2014-09-10 1 41 0 27 4 745
2014-09-11 3 21 0 23 5 234
2014-09-12 2 33 1 25 5 243
2014-09-13 0 7 0 21 4 951
2014-09-14 1 7 1 18 4 734
2014-09-15 0 29 0 21 5 744
2014-09-16 0 14 0 18 4 638
2014-09-17 0 10 0 19 5 146
2014-09-18 0 13 0 21 5 364
2014-09-19 0 8 0 21 5 709
2014-09-20 0 9 1 19 4 470
2014-09-21 3 26 1 19 5 891
2014-09-22 0 13 0 19 5 025
2014-09-23 1 22 0 20 6 398
2014-09-24 0 23 1 19 6 006
2014-09-25 0 16 0 22 5 732
2014-09-26 0 7 0 21 4 404
2014-09-27 1 19 1 23 4 732
2014-09-28 2 30 1 27 5 640
2014-09-29 2 36 0 25 7 160
2014-09-30 0 20 0 31 7 274
Août 2014 17 251 4 27 191 624
2014-08-01 0 11 0 17 4 869
2014-08-02 2 8 0 20 4 008
2014-08-03 5 21 0 22 3 930
2014-08-04 0 13 0 27 7 210
2014-08-05 2 12 1 24 7 177
2014-08-06 0 16 0 27 6 701
2014-08-07 0 7 0 25 3 965
2014-08-08 0 13 0 27 6 141
2014-08-09 0 2 0 21 4 733
2014-08-10 1 21 1 23 5 317
2014-08-11 0 0 0 22 5 671
2014-08-12 0 7 0 24 6 599
2014-08-13 0 1 0 15 4 833
2014-08-14 0 1 1 17 5 819
2014-08-15 0 0 0 18 6 630
2014-08-16 1 9 0 21 6 366
2014-08-17 0 11 0 19 6 206
2014-08-18 0 3 0 19 7 614
2014-08-19 1 2 0 25 6 728
2014-08-20 1 6 0 27 8 084
2014-08-21 0 8 0 27 9 580
2014-08-22 1 6 0 25 9 362
2014-08-23 0 7 0 22 6 382
2014-08-24 2 6 0 22 5 960
2014-08-25 0 5 0 25 5 413
2014-08-26 0 9 0 24 6 547
2014-08-27 0 5 0 23 5 741
2014-08-28 0 6 0 21 6 634
2014-08-29 1 9 1 25 5 677
2014-08-30 0 3 0 22 6 121
2014-08-31 0 23 0 23 5 606
Juillet 2014 25 369 3 30 236 312
2014-07-01 1 10 0 19 5 255
2014-07-02 2 27 0 18 5 751
2014-07-03 1 33 0 28 6 315
2014-07-04 1 28 1 30 9 465
2014-07-05 0 18 0 28 10 029
2014-07-06 0 9 0 22 8 518
2014-07-07 2 9 0 26 4 726
2014-07-08 1 9 1 20 6 102
2014-07-09 1 7 0 20 6 697
2014-07-10 0 5 0 22 5 937
2014-07-11 0 12 0 13 5 141
2014-07-12 0 8 0 23 8 506
2014-07-13 1 7 0 19 9 921
2014-07-14 1 16 0 12 5 280
2014-07-15 4 12 0 13 3 488
2014-07-16 1 7 0 28 10 016
2014-07-17 0 9 0 24 16 100
2014-07-18 0 11 0 23 16 608
2014-07-19 1 7 0 18 16 697
2014-07-20 1 7 0 20 4 967
2014-07-21 0 1 0 26 6 993
2014-07-22 1 11 0 21 8 213
2014-07-23 0 13 0 23 8 227
2014-07-24 0 1 0 23 8 500
2014-07-25 1 8 0 21 8 352
2014-07-26 0 4 0 21 6 351
2014-07-27 1 22 1 11 2 847
2014-07-28 2 21 0 17 4 541
2014-07-29 0 7 0 16 6 234
2014-07-30 0 17 0 18 5 977
2014-07-31 2 13 0 15 4 558
Juin 2014 29 602 3 32 220 918
Mai 2014 34 842 6 29 157 174
2014-05-01 2 54 0 15 2 998
2014-05-02 0 19 1 14 4 416
2014-05-03 1 14 0 12 2 336
2014-05-04 1 28 0 18 11 859
2014-05-05 0 15 0 14 1 396
2014-05-06 0 11 1 22 4 797
2014-05-07 0 9 0 18 3 829
2014-05-08 2 27 0 22 3 479
2014-05-09 2 33 0 14 3 211
2014-05-10 0 18 0 16 3 340
2014-05-11 2 36 1 19 4 081
2014-05-12 3 64 0 20 4 198
2014-05-13 2 32 0 19 3 565
2014-05-14 0 20 0 26 2 887
2014-05-15 2 23 0 22 3 577
2014-05-16 0 11 0 22 3 219
2014-05-17 2 16 0 22 3 583
2014-05-18 1 16 1 19 4 010
2014-05-19 3 51 1 22 4 120
2014-05-20 1 19 0 20 8 095
2014-05-21 0 28 0 18 6 029
2014-05-22 1 42 0 20 3 420
2014-05-23 1 46 0 26 7 952
2014-05-24 0 31 0 27 3 774
2014-05-25 2 60 0 25 7 974
2014-05-26 2 56 0 24 11 539
2014-05-27 1 15 0 22 8 592
2014-05-28 1 16 0 21 5 451
2014-05-29 0 9 0 21 5 330
2014-05-30 2 12 1 29 7 112
2014-05-31 0 11 0 25 7 005
Avril 2014 45 662 1 25 104 486
2014-04-01 3 29 0 14 4 594
2014-04-02 3 19 0 19 3 032
2014-04-03 2 14 0 13 2 744
2014-04-04 0 12 0 14 3 214
2014-04-05 0 5 0 17 3 260
2014-04-06 0 6 0 18 3 097
2014-04-07 1 13 0 20 2 585
2014-04-08 0 11 0 23 3 197
2014-04-09 1 11 0 18 3 647
2014-04-10 0 8 1 17 3 928
2014-04-11 0 9 0 20 2 170
2014-04-12 1 13 0 24 2 967
2014-04-13 0 13 0 21 3 698
2014-04-14 1 8 0 23 3 494
2014-04-15 4 15 0 22 6 980
2014-04-16 1 25 0 19 4 022
2014-04-17 0 17 0 15 6 056
2014-04-18 3 22 0 17 2 815
2014-04-19 0 16 0 17 2 641
2014-04-20 1 11 0 18 4 085
2014-04-21 2 23 0 22 3 723
2014-04-22 0 30 0 22 4 837
2014-04-23 0 37 0 24 3 303
2014-04-24 3 36 0 25 3 341
2014-04-25 8 65 0 18 2 930
2014-04-26 3 46 0 19 2 659
2014-04-27 5 45 0 19 3 483
2014-04-28 0 19 0 19 2 858
2014-04-29 2 46 0 14 2 266
2014-04-30 1 38 0 14 2 860
Mars 2014 32 595 4 26 120 439
Février 2014 24 660 5 28 102 996
Janvier 2014 92 974 5 33 99 419
2014-01-01 4 34 0 24 3 312
2014-01-02 0 50 0 23 4 511
2014-01-03 0 43 0 20 2 895
2014-01-04 3 41 0 17 4 764
2014-01-05 1 17 0 25 4 039
2014-01-06 4 36 0 25 5 158
2014-01-07 48 63 0 17 3 220
2014-01-08 1 19 0 24 3 415
2014-01-09 0 34 0 27 4 672
2014-01-10 2 27 1 25 3 536
2014-01-11 1 18 0 33 2 773
2014-01-12 0 29 0 17 4 429
2014-01-13 1 18 0 15 2 791
2014-01-14 2 30 0 17 2 962
2014-01-15 3 21 0 15 2 763
2014-01-16 1 18 0 11 2 260
2014-01-17 1 13 0 13 2 305
2014-01-18 0 20 0 13 2 086
2014-01-19 0 26 0 11 1 961
2014-01-20 6 56 0 13 2 554
2014-01-21 0 38 0 16 2 432
2014-01-22 0 14 0 20 4 564
2014-01-23 0 20 1 21 3 405
2014-01-24 1 16 0 20 2 979
2014-01-25 1 31 1 14 2 094
2014-01-26 3 38 0 14 3 666
2014-01-27 1 43 1 16 3 439
2014-01-28 1 43 1 15 2 432
2014-01-29 3 34 0 15 2 213
2014-01-30 2 36 0 16 3 217
2014-01-31 2 48 0 17 2 572
* 2013 408 8 887 76 89 1 597 727
Décembre 2013 36 785 2 79 132 305
Novembre 2013 36 751 8 29 141 119
2013-11-01 4 33 2 29 4 258
2013-11-02 1 10 0 18 3 364
2013-11-03 0 18 0 17 4 043
2013-11-04 0 16 0 16 2 787
2013-11-05 0 12 0 19 4 349
2013-11-06 0 14 0 25 12 178
2013-11-07 0 30 0 23 5 858
2013-11-08 3 22 0 16 3 999
2013-11-09 0 10 0 19 4 800
2013-11-10 1 16 0 17 4 744
2013-11-11 2 14 0 13 3 463
2013-11-12 1 32 0 14 3 326
2013-11-13 0 12 0 17 2 912
2013-11-14 2 27 0 16 2 991
2013-11-15 0 17 0 15 2 883
2013-11-16 2 18 0 25 3 279
2013-11-17 0 13 0 28 5 091
2013-11-18 2 20 1 20 3 269
2013-11-19 3 25 1 16 4 107
2013-11-20 5 53 0 25 4 556
2013-11-21 0 33 0 26 4 719
2013-11-22 2 35 1 24 5 798
2013-11-23 0 39 0 21 13 713
2013-11-24 1 32 0 29 8 700
2013-11-25 0 14 0 27 3 856
2013-11-26 2 46 0 19 3 287
2013-11-27 1 46 0 19 4 243
2013-11-28 2 37 2 18 3 613
2013-11-29 2 30 1 17 3 673
2013-11-30 0 27 0 18 3 260
Octobre 2013 37 683 10 26 116 570
Septembre 2013 33 723 15 29 160 779
2013-09-01 0 57 0 19 3 222
2013-09-02 2 24 0 21 3 211
2013-09-03 1 22 0 19 3 225
2013-09-04 2 24 2 21 14 311
2013-09-05 1 19 0 17 22 207
2013-09-06 3 23 2 21 13 976
2013-09-07 1 51 2 24 20 435
2013-09-08 1 34 0 24 10 968
2013-09-09 0 22 0 18 2 939
2013-09-10 2 30 0 18 3 194
2013-09-11 1 27 1 18 2 264
2013-09-12 2 15 0 17 3 642
2013-09-13 0 12 0 19 3 775
2013-09-14 2 24 0 20 3 850
2013-09-15 0 22 1 19 2 626
2013-09-16 0 19 0 13 7 428
2013-09-17 1 29 2 16 3 178
2013-09-18 3 37 1 20 2 878
2013-09-19 0 26 0 25 3 592
2013-09-20 0 23 0 20 2 807
2013-09-21 1 8 0 18 2 488
2013-09-22 0 15 0 12 1 533
2013-09-23 0 22 1 23 2 729
2013-09-24 0 11 0 25 2 352
2013-09-25 2 32 1 29 3 227
2013-09-26 2 22 0 26 3 451
2013-09-27 1 26 2 19 3 427
2013-09-28 4 11 0 22 2 817
2013-09-29 1 16 0 12 1 720
2013-09-30 0 20 0 22 3 307
Août 2013 20 356 4 30 113 960
2013-08-01 0 1 0 17 6 165
2013-08-02 2 10 1 30 3 363
2013-08-03 0 4 0 18 3 801
2013-08-04 1 6 0 15 4 126
2013-08-05 2 13 0 22 3 858
2013-08-06 0 8 0 17 5 385
2013-08-07 0 5 0 17 3 665
2013-08-08 0 10 0 18 3 057
2013-08-09 0 6 0 18 4 374
2013-08-10 1 2 0 16 4 563
2013-08-11 0 9 0 17 4 114
2013-08-12 0 1 0 20 4 489
2013-08-13 1 17 0 19 4 829
2013-08-14 0 7 0 15 2 333
2013-08-15 0 2 0 14 2 977
2013-08-16 0 1 0 15 4 833
2013-08-17 0 2 0 13 3 056
2013-08-18 0 7 0 13 2 784
2013-08-19 1 3 0 12 3 124
2013-08-20 1 8 0 13 2 097
2013-08-21 0 10 0 14 2 180
2013-08-22 0 9 0 15 2 515
2013-08-23 0 13 1 23 3 032
2013-08-24 2 21 0 14 2 563
2013-08-25 1 8 0 14 2 604
2013-08-26 1 13 0 14 1 978
2013-08-27 1 22 0 18 2 519
2013-08-28 0 30 0 14 3 594
2013-08-29 0 26 1 17 2 491
2013-08-30 2 41 1 20 8 436
2013-08-31 4 41 0 22 5 055
Juillet 2013 21 331 2 24 120 164
2013-07-01 0 9 0 24 4 330
2013-07-02 1 11 0 16 2 693
2013-07-03 4 28 0 23 4 775
2013-07-04 2 26 0 16 4 174
2013-07-05 0 16 0 20 4 074
2013-07-06 0 8 0 21 4 135
2013-07-07 1 6 0 17 2 726
2013-07-08 1 11 0 17 4 747
2013-07-09 0 9 0 18 3 831
2013-07-10 0 5 0 16 3 040
2013-07-11 1 6 0 19 4 713
2013-07-12 1 16 0 19 4 099
2013-07-13 0 3 0 14 4 400
2013-07-14 0 2 0 15 3 941
2013-07-15 0 2 0 15 3 367
2013-07-16 1 4 0 18 4 261
2013-07-17 2 23 0 22 3 788
2013-07-18 0 16 0 15 3 415
2013-07-19 1 2 0 16 2 111
2013-07-20 1 7 0 17 1 889
2013-07-21 0 5 0 18 4 035
2013-07-22 2 21 0 15 10 438
2013-07-23 0 9 1 18 4 311
2013-07-24 1 12 0 15 4 353
2013-07-25 1 15 0 24 3 021
2013-07-26 0 10 0 20 4 122
2013-07-27 1 12 0 12 2 914
2013-07-28 0 7 0 17 2 977
2013-07-29 0 13 0 19 2 352
2013-07-30 0 9 1 17 2 615
2013-07-31 0 8 0 18 4 517
Juin 2013 40 731 5 34 119 512
Mai 2013 34 881 3 47 157 484
Avril 2013 38 799 8 33 124 279
Mars 2013 40 1 111 9 62 147 762
2013-03-01 0 12 0 51 6 549
2013-03-02 1 13 0 37 4 543
2013-03-03 2 43 0 37 3 584
2013-03-04 0 47 0 48 5 492
2013-03-05 1 28 2 43 10 235
2013-03-06 0 23 1 23 5 242
2013-03-07 1 25 0 17 2 873
2013-03-08 2 34 0 22 3 808
2013-03-09 2 35 1 15 3 643
2013-03-10 4 41 0 43 3 470
2013-03-11 1 26 0 30 4 367
2013-03-12 0 34 1 21 4 299
2013-03-13 3 59 0 24 4 126
2013-03-14 3 38 0 18 4 289
2013-03-15 1 63 1 18 4 539
2013-03-16 0 26 0 16 3 540
2013-03-17 1 34 0 18 3 678
2013-03-18 1 70 0 62 5 572
2013-03-19 4 21 1 27 3 636
2013-03-20 1 43 1 33 6 483
2013-03-21 2 43 0 23 5 533
2013-03-22 0 29 0 24 4 112
2013-03-23 3 17 0 20 3 638
2013-03-24 3 68 0 23 4 766
2013-03-25 0 41 1 22 8 947
2013-03-26 3 50 0 20 6 590
2013-03-27 0 39 0 27 3 966
2013-03-28 0 37 0 24 5 372
2013-03-29 0 42 0 19 5 271
2013-03-30 1 17 0 14 2 181
2013-03-31 0 13 0 18 3 418
Février 2013 32 838 5 79 125 299
Janvier 2013 41 898 5 89 138 494
2013-01-01 3 41 0 18 3 294
2013-01-02 0 40 0 32 4 176
2013-01-03 0 19 1 15 3 604
2013-01-04 1 25 1 37 4 312
2013-01-05 3 14 0 15 4 484
2013-01-06 4 45 0 18 3 481
2013-01-07 2 32 0 18 3 613
2013-01-08 2 17 0 22 3 963
2013-01-09 0 19 0 24 3 801
2013-01-10 1 31 0 18 3 318
2013-01-11 0 14 0 17 2 898
2013-01-12 1 23 0 41 3 129
2013-01-13 1 41 0 36 3 414
2013-01-14 1 28 0 41 3 865
2013-01-15 5 56 0 20 4 435
2013-01-16 1 33 0 39 4 394
2013-01-17 1 50 0 38 4 104
2013-01-18 0 17 0 31 4 143
2013-01-19 2 23 0 17 3 723
2013-01-20 2 24 0 22 4 177
2013-01-21 1 31 0 24 5 005
2013-01-22 0 15 1 19 3 874
2013-01-23 0 34 0 16 3 985
2013-01-24 4 34 0 21 4 457
2013-01-25 0 23 0 14 4 216
2013-01-26 0 13 0 63 7 035
2013-01-27 1 23 1 89 8 106
2013-01-28 0 38 0 55 6 946
2013-01-29 0 29 0 52 5 581
2013-01-30 1 30 1 54 6 998
2013-01-31 4 36 0 39 5 963
* 2012 446 10 690 67 157 1 274 957
Décembre 2012 57 1 411 4 45 150 137
2012-12-01 3 30 0 17 8 865
2012-12-02 0 39 0 29 12 336
2012-12-03 1 44 0 36 10 973
2012-12-04 1 36 0 25 8 090
2012-12-05 4 63 1 18 4 442
2012-12-06 3 55 0 22 3 938
2012-12-07 1 57 0 20 4 955
2012-12-08 1 21 0 36 3 479
2012-12-09 2 28 0 18 3 093
2012-12-10 2 73 0 19 5 209
2012-12-11 0 64 0 17 4 348
2012-12-12 2 32 0 16 3 366
2012-12-13 1 48 0 20 3 104
2012-12-14 1 41 0 20 3 934
2012-12-15 0 9 0 16 2 675
2012-12-16 6 94 1 23 4 989
2012-12-17 2 90 1 24 5 481
2012-12-18 4 48 1 45 5 932
2012-12-19 3 94 0 19 4 628
2012-12-20 2 61 0 38 4 148
2012-12-21 2 83 0 33 4 280
2012-12-22 1 17 0 18 3 038
2012-12-23 1 25 0 21 2 732
2012-12-24 0 19 0 17 5 198
2012-12-25 1 20 0 16 2 480
2012-12-26 1 11 0 20 2 873
2012-12-27 4 56 0 20 4 317
2012-12-28 3 33 0 20 2 804
2012-12-29 3 36 0 21 4 004
2012-12-30 0 54 0 24 4 260
2012-12-31 2 30 0 23 6 166
Novembre 2012 46 1 137 8 25 112 399
2012-11-01 4 28 0 21 2 832
2012-11-02 4 55 0 18 3 206
2012-11-03 0 21 0 22 3 154
2012-11-04 0 31 0 15 2 586
2012-11-05 4 82 1 25 4 080
2012-11-06 2 42 0 16 3 097
2012-11-07 1 48 0 22 4 970
2012-11-08 0 28 0 16 3 568
2012-11-09 1 49 0 19 4 597
2012-11-10 1 10 0 16 2 795
2012-11-11 0 17 0 21 2 967
2012-11-12 0 23 0 18 3 459
2012-11-13 5 42 1 19 3 524
2012-11-14 3 51 2 19 5 413
2012-11-15 2 33 0 22 3 002
2012-11-16 0 25 0 17 3 266
2012-11-17 0 18 0 14 3 418
2012-11-18 3 41 0 19 3 365
2012-11-19 1 47 0 22 3 809
2012-11-20 3 55 0 21 3 598
2012-11-21 2 73 2 23 4 155
2012-11-22 1 32 0 18 4 168
2012-11-23 0 29 0 21 3 704
2012-11-24 0 16 0 24 3 065
2012-11-25 3 46 0 15 3 966
2012-11-26 3 68 1 20 5 492
2012-11-27 1 36 0 18 5 358
2012-11-28 1 50 0 25 3 829
2012-11-29 1 29 1 25 4 706
2012-11-30 0 12 0 15 3 250
Octobre 2012 45 1 068 7 25 80 970
2012-10-01 4 36 0 16 2 575
2012-10-02 0 19 0 16 2 057
2012-10-03 1 21 0 14 1 771
2012-10-04 1 15 0 25 2 211
2012-10-05 1 6 0 16 1 729
2012-10-06 0 3 0 14 1 339
2012-10-07 1 25 1 13 1 948
2012-10-08 0 43 0 14 3 370
2012-10-09 1 36 0 21 2 924
2012-10-10 2 46 0 17 2 361
2012-10-11 1 54 0 17 3 608
2012-10-12 0 22 0 16 1 810
2012-10-13 3 37 1 14 2 059
2012-10-14 2 57 1 21 2 843
2012-10-15 2 67 0 18 2 859
2012-10-16 0 35 0 17 2 927
2012-10-17 2 68 0 23 3 599
2012-10-18 1 42 1 20 2 644
2012-10-19 1 60 0 15 2 712
2012-10-20 1 18 1 15 2 052
2012-10-21 6 55 1 14 2 785
2012-10-22 2 43 0 16 2 612
2012-10-23 1 35 0 20 2 967
2012-10-24 1 22 0 16 2 174
2012-10-25 0 23 0 14 2 367
2012-10-26 0 25 0 13 2 731
2012-10-27 0 4 0 13 2 966
2012-10-28 3 43 1 19 4 497
2012-10-29 1 31 0 22 3 134
2012-10-30 5 43 0 17 2 931
2012-10-31 2 34 0 20 2 408
Septembre 2012 37 876 11 38 107 023
Août 2012 30 595 5 41 95 032
Juillet 2012 24 563 2 157 78 638
2012-07-01 2 33 0 20 3 383
2012-07-02 0 39 0 16 3 176
2012-07-03 1 42 0 21 2 769
2012-07-04 0 21 0 18 2 427
2012-07-05 0 28 0 19 2 191
2012-07-06 0 29 0 15 2 402
2012-07-07 2 10 0 25 4 165
2012-07-08 0 13 1 17 1 741
2012-07-09 2 18 0 14 3 585
2012-07-10 2 24 0 14 2 317
2012-07-11 0 39 0 22 3 204
2012-07-12 0 32 0 14 1 963
2012-07-13 1 28 0 16 1 977
2012-07-14 0 17 0 16 1 834
2012-07-15 3 22 0 30 3 446
2012-07-16 1 11 0 26 3 044
2012-07-17 0 5 0 13 1 616
2012-07-18 2 14 0 15 1 754
2012-07-19 0 21 0 13 2 427
2012-07-20 0 15 0 18 1 824
2012-07-21 0 10 0 10 1 292
2012-07-22 0 6 0 18 1 434
2012-07-23 1 7 0 17 1 873
2012-07-24 2 8 0 157 7 112
2012-07-25 2 13 1 13 1 667
2012-07-26 1 6 0 14 1 478
2012-07-27 1 14 0 16 2 610
2012-07-28 0 6 0 17 2 026
2012-07-29 0 11 0 16 2 266
2012-07-30 1 11 0 15 2 745
2012-07-31 0 10 0 17 2 890
Juin 2012 39 984 10 33 88 620
Mai 2012 22 703 5 26 77 701
Avril 2012 33 714 4 33 95 151
2012-04-01 2 22 0 25 3 938
2012-04-02 1 49 0 26 3 936
2012-04-03 1 13 0 22 3 955
2012-04-04 1 23 1 21 3 616
2012-04-05 1 23 0 21 4 026
2012-04-06 2 13 0 22 3 297
2012-04-07 1 14 1 20 3 117
2012-04-08 0 10 0 17 3 082
2012-04-09 3 13 0 20 2 799
2012-04-10 0 23 0 24 3 521
2012-04-11 0 15 0 21 3 174
2012-04-12 0 19 0 19 3 154
2012-04-13 0 17 0 17 2 926
2012-04-14 0 22 1 22 2 797
2012-04-15 1 19 0 20 2 363
2012-04-16 5 42 0 23 4 103
2012-04-17 0 37 0 21 3 144
2012-04-18 1 19 0 25 3 996
2012-04-19 1 16 0 20 2 869
2012-04-20 1 24 0 19 3 018
2012-04-21 1 34 0 23 3 678
2012-04-22 0 30 0 23 2 720
2012-04-23 1 13 0 18 3 576
2012-04-24 3 22 0 19 2 798
2012-04-25 2 24 0 20 3 296
2012-04-26 0 26 0 22 2 713
2012-04-27 0 24 0 14 2 406
2012-04-28 1 12 0 33 2 172
2012-04-29 3 64 1 14 2 564
2012-04-30 1 32 0 13 2 397
Mars 2012 35 977 5 48 160 160
2012-03-01 1 35 0 27 6 158
2012-03-02 3 13 2 26 5 378
2012-03-03 0 18 0 23 5 671
2012-03-04 4 28 1 20 5 358
2012-03-05 4 89 0 29 6 627
2012-03-06 1 45 0 45 6 165
2012-03-07 0 59 0 20 7 932
2012-03-08 3 35 0 46 6 667
2012-03-09 1 33 0 21 6 097
2012-03-10 0 22 0 21 5 441
2012-03-11 1 28 0 25 5 443
2012-03-12 1 20 0 25 5 930
2012-03-13 0 15 0 21 5 416
2012-03-14 2 34 0 48 6 562
2012-03-15 0 17 0 31 4 576
2012-03-16 0 14 0 30 4 508
2012-03-17 1 25 0 25 4 761
2012-03-18 1 39 0 27 5 081
2012-03-19 2 29 0 40 5 719
2012-03-20 2 51 0 24 5 746
2012-03-21 1 42 1 23 4 563
2012-03-22 0 34 0 23 4 276
2012-03-23 1 25 0 18 4 565
2012-03-24 2 38 1 21 4 568
2012-03-25 2 25 0 22 3 868
2012-03-26 1 34 0 21 4 653
2012-03-27 1 41 0 22 3 772
2012-03-28 0 16 0 23 3 667
2012-03-29 0 22 0 27 3 720
2012-03-30 0 20 0 24 3 175
2012-03-31 0 31 0 18 4 097
Février 2012 34 704 5 33 117 877
Janvier 2012 44 958 1 30 111 249
2012-01-01 3 33 0 15 2 419
2012-01-02 3 54 0 22 4 785
2012-01-03 2 41 1 24 4 216
2012-01-04 0 23 0 20 4 356
2012-01-05 3 33 0 23 4 494
2012-01-06 3 53 0 30 4 247
2012-01-07 0 24 0 20 3 112
2012-01-08 3 21 0 19 3 575
2012-01-09 3 40 0 24 5 659
2012-01-10 2 39 0 24 2 961
2012-01-11 3 38 0 20 4 809
2012-01-12 0 9 0 24 3 309
2012-01-13 1 33 0 22 5 053
2012-01-14 1 20 0 18 2 639
2012-01-15 3 42 0 22 2 705
2012-01-16 2 59 0 26 4 036
2012-01-17 2 34 0 20 4 879
2012-01-18 1 23 0 19 2 689
2012-01-19 1 25 0 23 3 208
2012-01-20 1 37 0 21 4 457
2012-01-21 0 12 0 20 2 455
2012-01-22 1 33 0 22 5 353
2012-01-23 1 33 0 19 2 704
2012-01-24 1 34 0 23 5 671
2012-01-25 1 23 0 22 2 765
2012-01-26 0 17 0 15 2 256
2012-01-27 1 21 0 15 2 639
2012-01-28 0 37 0 14 2 277
2012-01-29 0 9 0 19 2 598
2012-01-30 1 19 0 18 2 202
2012-01-31 1 39 0 17 2 721
* 2011 822 21 877 118 48 1 861 895
Décembre 2011 68 1 315 7 36 141 929
2011-12-01 0 46 0 28 3 436
2011-12-02 2 46 0 29 5 093
2011-12-03 3 35 0 24 3 173
2011-12-04 5 39 0 26 6 734
2011-12-05 5 109 0 36 4 968
2011-12-06 3 65 0 25 7 602
2011-12-07 4 93 1 28 6 025
2011-12-08 2 76 0 22 4 333
2011-12-09 1 94 0 29 6 392
2011-12-10 5 39 1 25 5 955
2011-12-11 3 49 1 27 5 545
2011-12-12 4 48 0 23 3 344
2011-12-13 3 64 0 28 6 227
2011-12-14 1 28 0 21 2 931
2011-12-15 4 66 1 31 4 951
2011-12-16 3 30 0 28 3 649
2011-12-17 1 29 0 19 4 090
2011-12-18 3 76 1 25 6 571
2011-12-19 5 67 2 23 5 351
2011-12-20 5 57 0 27 5 091
2011-12-21 0 12 0 22 5 526
2011-12-22 0 4 0 25 2 840
2011-12-23 1 8 0 18 3 720
2011-12-24 1 19 0 23 5 013
2011-12-25 1 26 0 17 2 000
2011-12-26 0 22 0 14 3 519
2011-12-27 2 20 0 25 3 302
2011-12-28 0 13 0 24 4 326
2011-12-29 1 16 0 20 3 816
2011-12-30 0 11 0 19 4 054
2011-12-31 0 8 0 28 2 352
Novembre 2011 94 1 539 4 36 150 015
Octobre 2011 81 1 597 13 41 169 207
2011-10-01 1 13 0 28 6 004
2011-10-02 1 20 0 20 5 506
2011-10-03 0 91 0 25 7 611
2011-10-04 6 70 3 24 4 912
2011-10-05 5 74 0 23 4 729
2011-10-06 4 81 0 21 5 207
2011-10-07 1 60 0 17 5 128
2011-10-08 3 34 2 18 4 442
2011-10-09 13 67 0 20 6 218
2011-10-10 4 60 0 16 6 297
2011-10-11 1 71 0 21 6 462
2011-10-12 1 31 0 27 5 896
2011-10-13 1 44 0 16 5 869
2011-10-14 1 47 0 19 7 736
2011-10-15 1 22 0 29 4 683
2011-10-16 0 19 0 20 3 832
2011-10-17 10 74 0 20 4 981
2011-10-18 3 56 1 17 5 476
2011-10-19 3 76 0 25 6 145
2011-10-20 3 70 1 19 5 110
2011-10-21 1 34 0 16 4 516
2011-10-22 0 30 1 21 3 856
2011-10-23 3 45 2 41 4 932
2011-10-24 1 49 0 19 4 749
2011-10-25 4 50 0 28 5 342
2011-10-26 1 58 0 27 5 178
2011-10-27 6 118 2 26 7 117
2011-10-28 0 27 0 19 5 048
2011-10-29 1 33 0 21 7 438
2011-10-30 0 18 1 17 4 059
2011-10-31 2 55 0 20 4 728
Septembre 2011 96 1 991 19 24 158 540
Août 2011 68 1 372 16 48 135 201
2011-08-01 1 53 3 16 3 486
2011-08-02 2 33 2 18 3 048
2011-08-03 0 24 0 18 2 915
2011-08-04 3 25 0 16 2 649
2011-08-05 2 35 0 20 3 005
2011-08-06 0 17 0 15 2 618
2011-08-07 2 23 0 12 3 445
2011-08-08 2 63 0 15 3 465
2011-08-09 1 29 0 21 2 868
2011-08-10 1 35 0 22 2 729
2011-08-11 2 42 0 17 2 980
2011-08-12 1 57 0 21 3 655
2011-08-13 1 15 0 12 1 914
2011-08-14 3 11 0 16 2 022
2011-08-15 3 26 0 18 3 670
2011-08-16 2 32 0 11 9 114
2011-08-17 6 40 0 18 8 629
2011-08-18 4 50 0 29 6 811
2011-08-19 1 27 0 14 4 955
2011-08-20 0 16 0 13 2 768
2011-08-21 1 20 2 16 2 731
2011-08-22 2 76 1 15 4 951
2011-08-23 1 73 1 20 7 172
2011-08-24 1 36 1 23 5 952
2011-08-25 6 106 1 16 7 246
2011-08-26 5 112 2 23 8 570
2011-08-27 2 52 0 19 5 138
2011-08-28 4 46 1 13 3 457
2011-08-29 3 83 0 18 4 851
2011-08-30 1 48 1 18 4 507
2011-08-31 5 67 1 48 3 880
Juillet 2011 57 1 156 10 30 112 626
2011-07-01 2 18 0 21 5 455
2011-07-02 5 34 1 13 3 807
2011-07-03 0 47 1 29 3 624
2011-07-04 3 75 1 23 5 753
2011-07-05 1 54 1 17 5 269
2011-07-06 1 25 0 17 4 105
2011-07-07 0 25 0 30 3 217
2011-07-08 3 74 0 17 4 521
2011-07-09 8 29 1 18 2 897
2011-07-10 1 54 0 21 5 965
2011-07-11 3 38 2 18 4 473
2011-07-12 2 66 0 14 3 417
2011-07-13 5 73 0 19 3 850
2011-07-14 0 38 0 15 3 112
2011-07-15 0 29 0 17 2 768
2011-07-16 1 17 0 21 4 404
2011-07-17 0 18 0 15 4 901
2011-07-18 1 25 0 18 2 740
2011-07-19 1 15 0 14 2 640
2011-07-20 1 48 0 20 3 211
2011-07-21 2 24 1 15 2 768
2011-07-22 2 46 0 17 3 321
2011-07-23 1 24 1 12 2 352
2011-07-24 8 31 0 15 2 544
2011-07-25 3 56 0 19 3 247
2011-07-26 1 31 1 12 3 398
2011-07-27 1 35 0 19 3 127
2011-07-28 0 28 0 24 3 297
2011-07-29 0 28 0 16 2 641
2011-07-30 0 12 0 17 2 551
2011-07-31 1 39 0 17 3 251
Juin 2011 40 1 214 6 31 149 115
Mai 2011 64 1 997 8 39 181 997
2011-05-01 1 44 0 21 3 800
2011-05-02 2 97 0 21 4 247
2011-05-03 2 60 0 15 3 949
2011-05-04 2 57 0 22 4 174
2011-05-05 2 87 0 29 4 101
2011-05-06 1 46 0 19 3 293
2011-05-07 3 21 0 31 5 860
2011-05-08 1 13 1 29 6 061
2011-05-09 2 62 1 26 7 057
2011-05-10 3 117 1 32 13 635
2011-05-11 0 70 0 33 8 213
2011-05-12 4 99 0 39 6 910
2011-05-13 3 60 0 27 5 773
2011-05-14 3 45 1 23 4 456
2011-05-15 1 55 0 26 5 530
2011-05-16 1 73 0 34 6 924
2011-05-17 0 96 0 25 5 617
2011-05-18 4 144 0 29 7 640
2011-05-19 2 91 0 34 8 906
2011-05-20 1 45 0 28 5 778
2011-05-21 0 21 0 38 5 753
2011-05-22 1 55 0 29 6 481
2011-05-23 7 130 0 23 10 799
2011-05-24 1 41 0 28 4 569
2011-05-25 3 51 0 34 6 528
2011-05-26 0 71 2 24 4 490
2011-05-27 1 49 1 18 3 249
2011-05-28 0 36 0 14 2 868
2011-05-29 7 31 0 23 4 945
2011-05-30 3 76 0 28 5 514
2011-05-31 3 54 1 25 4 877
Avril 2011 46 1 637 9 38 176 986
2011-04-01 3 85 0 24 5 196
2011-04-02 2 26 0 25 3 181
2011-04-03 1 47 0 22 3 986
2011-04-04 5 87 0 23 5 162
2011-04-05 3 126 0 26 5 929
2011-04-06 2 86 0 30 5 882
2011-04-07 2 66 0 28 5 722
2011-04-08 1 43 0 24 4 364
2011-04-09 0 20 0 30 5 658
2011-04-10 2 18 0 23 5 927
2011-04-11 1 70 0 29 6 508
2011-04-12 2 92 0 16 4 305
2011-04-13 0 60 0 19 3 888
2011-04-14 3 58 2 36 11 355
2011-04-15 1 48 0 26 8 294
2011-04-16 0 22 0 24 5 495
2011-04-17 0 22 0 27 5 056
2011-04-18 1 49 1 38 7 751
2011-04-19 0 41 0 32 8 124
2011-04-20 0 29 1 28 7 842
2011-04-21 2 75 2 29 7 444
2011-04-22 4 72 1 33 6 852
2011-04-23 2 53 0 26 6 996
2011-04-24 3 39 1 32 6 830
2011-04-25 1 54 0 27 5 518
2011-04-26 2 61 0 30 6 064
2011-04-27 1 30 0 22 4 274
2011-04-28 0 71 0 28 4 955
2011-04-29 0 49 0 28 4 772
2011-04-30 2 38 1 24 3 656
Mars 2011 54 2 388 6 31 211 307
2011-03-01 3 122 0 18 6 680
2011-03-02 2 125 0 22 7 771
2011-03-03 2 101 0 20 6 758
2011-03-04 1 42 0 17 4 167
2011-03-05 3 23 0 20 4 811
2011-03-06 1 22 0 18 6 699
2011-03-07 1 42 1 17 6 565
2011-03-08 1 37 0 15 7 116
2011-03-09 1 39 0 16 10 831
2011-03-10 3 77 0 15 19 804
2011-03-11 2 61 0 19 12 773
2011-03-12 4 51 1 16 5 555
2011-03-13 4 68 0 15 5 274
2011-03-14 2 115 0 16 5 003
2011-03-15 1 92 0 17 6 428
2011-03-16 3 212 1 21 9 712
2011-03-17 0 120 1 19 5 516
2011-03-18 0 109 0 19 3 950
2011-03-19 1 32 0 16 3 488
2011-03-20 0 56 0 20 3 576
2011-03-21 1 81 0 15 6 916
2011-03-22 1 58 0 30 6 314
2011-03-23 2 95 0 19 8 455
2011-03-24 3 147 0 19 6 592
2011-03-25 0 66 0 22 9 114
2011-03-26 1 15 0 21 4 424
2011-03-27 0 24 0 31 4 299
2011-03-28 3 77 0 28 5 137
2011-03-29 3 92 1 26 4 709
2011-03-30 4 104 1 25 5 221
2011-03-31 1 83 0 28 7 649
Février 2011 59 2 656 5 46 128 248
Janvier 2011 95 3 015 15 44 146 724
2011-01-01 4 28 1 33 3 209
2011-01-02 3 53 0 27 3 194
2011-01-03 4 120 0 23 4 999
2011-01-04 4 123 0 25 4 781
2011-01-05 2 129 0 36 4 810
2011-01-06 3 97 1 27 4 554
2011-01-07 0 98 0 25 4 909
2011-01-08 1 28 1 20 3 049
2011-01-09 3 61 0 20 3 543
2011-01-10 3 87 0 36 4 897
2011-01-11 1 79 1 25 4 007
2011-01-12 2 149 0 34 5 515
2011-01-13 6 143 3 40 5 584
2011-01-14 5 244 0 29 8 061
2011-01-15 1 41 0 36 4 401
2011-01-16 9 38 0 23 3 832
2011-01-17 2 153 0 44 6 302
2011-01-18 4 85 0 32 5 425
2011-01-19 4 92 0 29 4 997
2011-01-20 5 99 1 25 4 295
2011-01-21 3 75 0 30 4 089
2011-01-22 3 45 1 32 3 479
2011-01-23 1 85 1 32 4 851
2011-01-24 1 79 0 35 4 531
2011-01-25 2 98 0 30 5 112
2011-01-26 4 137 3 25 5 274
2011-01-27 1 118 0 27 5 128
2011-01-28 4 130 1 32 5 328
2011-01-29 1 78 0 25 4 103
2011-01-30 2 58 0 33 3 935
2011-01-31 7 165 1 33 6 530
* 2010 615 23 079 70 91 1 409 620
Décembre 2010 54 2 635 5 43 199 984
Novembre 2010 59 2 475 6 49 127 779
2010-11-01 2 69 0 42 4 918
2010-11-02 4 147 0 40 5 882
2010-11-03 1 134 0 34 4 974
2010-11-04 4 98 0 28 4 484
2010-11-05 3 140 0 34 4 770
2010-11-06 1 30 0 25 2 633
2010-11-07 1 56 0 25 3 634
2010-11-08 1 50 0 37 4 890
2010-11-09 2 60 1 38 3 406
2010-11-10 3 87 0 41 4 949
2010-11-11 2 48 0 40 3 457
2010-11-12 1 54 0 28 3 255
2010-11-13 1 41 0 24 2 528
2010-11-14 2 94 0 37 4 624
2010-11-15 1 129 1 49 4 879
2010-11-16 1 82 0 33 4 288
2010-11-17 0 44 0 27 4 513
2010-11-18 1 65 0 22 3 684
2010-11-19 2 72 2 23 3 586
2010-11-20 4 70 0 24 3 798
2010-11-21 3 70 0 26 3 650
2010-11-22 3 81 0 30 4 196
2010-11-23 1 80 0 26 4 872
2010-11-24 3 110 1 27 4 984
2010-11-25 3 129 1 33 4 861
2010-11-26 1 85 0 32 4 900
2010-11-27 1 38 0 27 3 096
2010-11-28 0 46 0 34 3 836
2010-11-29 3 111 0 33 4 893
2010-11-30 4 155 0 33 5 339
Octobre 2010 56 2 811 15 58 134 942
2010-10-01 1 27 0 18 2 575
2010-10-02 0 7 0 14 2 199
2010-10-03 2 20 1 13 2 150
2010-10-04 3 117 0 25 4 970
2010-10-05 4 100 2 23 4 774
2010-10-06 4 161 2 17 4 633
2010-10-07 3 125 0 23 4 574
2010-10-08 3 149 0 22 4 322
2010-10-09 1 41 0 10 2 439
2010-10-10 0 73 0 19 3 425
2010-10-11 1 71 0 17 3 794
2010-10-12 4 99 0 20 4 927
2010-10-13 3 122 0 31 4 968
2010-10-14 2 103 0 35 4 902
2010-10-15 1 135 0 35 4 851
2010-10-16 2 49 0 30 3 550
2010-10-17 1 89 2 45 4 610
2010-10-18 2 133 3 45 5 301
2010-10-19 2 99 0 30 4 707
2010-10-20 2 110 2 47 4 597
2010-10-21 1 121 0 41 5 105
2010-10-22 0 77 0 41 4 177
2010-10-23 0 59 0 28 3 880
2010-10-24 3 75 0 33 4 059
2010-10-25 1 114 0 58 5 595
2010-10-26 0 91 0 37 5 246
2010-10-27 3 121 1 41 5 815
2010-10-28 1 115 0 33 5 457
2010-10-29 2 72 0 36 4 402
2010-10-30 2 53 1 37 4 041
2010-10-31 2 83 1 45 4 897
Septembre 2010 53 1 528 8 29 95 249
Août 2010 32 1 287 6 33 89 617
2010-08-01 2 44 0 14 2 375
2010-08-02 1 72 0 19 3 526
2010-08-03 2 81 0 33 3 516
2010-08-04 0 87 0 21 2 742
2010-08-05 0 80 0 17 3 348
2010-08-06 2 149 0 20 3 946
2010-08-07 1 29 1 17 2 159
2010-08-08 1 27 0 16 2 369
2010-08-09 3 52 0 20 2 680
2010-08-10 0 52 0 15 3 070
2010-08-11 2 38 0 21 4 295
2010-08-12 1 36 0 18 2 513
2010-08-13 0 15 0 15 2 131
2010-08-14 0 10 1 8 6 123
2010-08-15 0 5 1 10 2 220
2010-08-16 2 21 0 12 2 503
2010-08-17 0 12 0 13 2 212
2010-08-18 0 17 0 12 2 490
2010-08-19 0 24 0 11 2 741
2010-08-20 2 30 0 22 3 123
2010-08-21 1 20 0 13 2 077
2010-08-22 2 35 0 12 1 743
2010-08-23 3 43 0 16 2 815
2010-08-24 1 41 0 17 3 088
2010-08-25 0 47 0 14 2 711
2010-08-26 1 61 0 16 2 920
2010-08-27 2 37 0 15 3 274
2010-08-28 0 20 0 9 1 779
2010-08-29 0 16 1 14 2 423
2010-08-30 1 32 0 17 3 130
2010-08-31 2 54 2 15 3 575
Juillet 2010 34 1 637 5 32 97 290
Juin 2010 46 2 137 3 28 109 648
Mai 2010 50 1 497 6 28 99 050
2010-05-01 1 32 0 21 2 421
2010-05-02 3 74 0 19 3 038
2010-05-03 8 104 1 18 3 744
2010-05-04 2 85 3 21 4 178
2010-05-05 0 40 0 17 3 300
2010-05-06 1 42 0 23 2 824
2010-05-07 0 73 0 18 3 255
2010-05-08 1 44 0 15 3 488
2010-05-09 1 41 0 15 3 389
2010-05-10 1 68 0 19 3 933
2010-05-11 1 48 0 22 5 245
2010-05-12 0 29 0 26 3 746
2010-05-13 0 7 0 18 2 614
2010-05-14 2 27 0 20 2 765
2010-05-15 0 19 0 19 2 419
2010-05-16 2 18 0 16 2 298
2010-05-17 0 57 1 15 3 088
2010-05-18 3 32 0 19 2 709
2010-05-19 1 31 0 19 2 946
2010-05-20 1 29 0 25 2 781
2010-05-21 3 39 0 18 2 646
2010-05-22 0 19 0 21 2 436
2010-05-23 2 20 0 20 2 475
2010-05-24 1 27 0 19 2 780
2010-05-25 5 104 0 19 4 022
2010-05-26 3 91 0 18 3 752
2010-05-27 1 50 0 17 3 010
2010-05-28 2 50 0 28 3 237
2010-05-29 1 43 0 20 3 063
2010-05-30 2 50 1 18 2 987
2010-05-31 2 104 0 25 4 461
Avril 2010 45 1 888 3 26 102 219
2010-04-01 3 88 0 18 4 705
2010-04-02 1 97 1 17 5 127
2010-04-03 0 48 1 16 4 067
2010-04-04 0 25 0 17 3 540
2010-04-05 2 54 0 15 3 258
2010-04-06 0 69 0 19 3 639
2010-04-07 1 67 0 19 3 590
2010-04-08 5 109 0 25 4 043
2010-04-09 2 117 0 22 4 430
2010-04-10 0 44 0 17 2 821
2010-04-11 2 71 0 18 3 408
2010-04-12 2 101 0 21 4 509
2010-04-13 1 64 0 16 3 272
2010-04-14 2 56 0 19 3 587
2010-04-15 2 42 1 20 3 071
2010-04-16 2 48 0 18 3 184
2010-04-17 0 37 0 17 2 301
2010-04-18 0 20 0 17 2 342
2010-04-19 1 45 0 22 3 138
2010-04-20 2 70 0 18 3 550
2010-04-21 1 33 0 16 2 917
2010-04-22 2 70 0 26 3 255
2010-04-23 0 60 0 22 3 359
2010-04-24 4 34 0 16 2 265
2010-04-25 4 71 0 18 2 831
2010-04-26 1 105 0 23 3 707
2010-04-27 3 68 0 19 2 863
2010-04-28 0 43 0 20 3 119
2010-04-29 0 61 0 16 3 058
2010-04-30 2 71 0 15 3 263
Mars 2010 53 1 534 2 46 118 201
2010-03-01 2 57 0 30 3 808
2010-03-02 1 43 0 28 3 278
2010-03-03 1 50 0 25 3 337
2010-03-04 1 45 0 29 2 857
2010-03-05 2 45 0 23 2 770
2010-03-06 0 15 1 22 3 117
2010-03-07 3 37 1 27 3 446
2010-03-08 2 103 0 29 4 766
2010-03-09 4 45 0 30 3 965
2010-03-10 1 57 0 29 4 220
2010-03-11 1 71 0 36 4 632
2010-03-12 0 25 0 30 4 266
2010-03-13 4 54 0 32 4 286
2010-03-14 1 46 0 16 4 716
2010-03-15 2 68 0 35 4 863
2010-03-16 0 24 0 29 4 037
2010-03-17 3 52 0 26 4 054
2010-03-18 2 43 0 25 3 982
2010-03-19 0 43 0 46 4 350
2010-03-20 1 24 0 28 3 099
2010-03-21 4 43 0 27 3 413
2010-03-22 6 57 0 19 3 536
2010-03-23 2 73 0 16 3 468
2010-03-24 1 69 0 24 3 359
2010-03-25 1 37 0 19 3 480
2010-03-26 0 40 0 21 3 801
2010-03-27 0 21 0 16 2 808
2010-03-28 2 34 0 17 3 354
2010-03-29 3 83 0 15 4 329
2010-03-30 1 60 0 19 3 857
2010-03-31 2 70 0 21 4 947
Février 2010 65 1 574 4 91 117 274
Janvier 2010 68 2 076 7 43 118 367
2010-01-01 1 46 0 20 3 913
2010-01-02 4 31 1 32 3 858
2010-01-03 2 36 0 28 3 215
2010-01-04 4 63 0 32 3 563
2010-01-05 6 83 1 14 3 833
2010-01-06 1 75 0 29 4 333
2010-01-07 1 69 0 28 3 556
2010-01-08 3 91 0 31 3 667
2010-01-09 2 63 0 16 6 182
2010-01-10 3 84 0 26 5 259
2010-01-11 0 69 0 34 3 960
2010-01-12 2 49 1 38 3 467
2010-01-13 3 71 0 43 3 364
2010-01-14 6 94 0 22 3 885
2010-01-15 1 39 0 35 3 006
2010-01-16 4 72 0 29 3 257
2010-01-17 3 64 0 21 3 633
2010-01-18 1 108 1 25 4 914
2010-01-19 0 43 0 32 4 202
2010-01-20 2 67 0 41 4 556
2010-01-21 1 91 1 31 3 743
2010-01-22 2 86 0 34 3 744
2010-01-23 2 36 1 19 2 584
2010-01-24 0 37 0 21 3 027
2010-01-25 2 126 1 37 4 743
2010-01-26 2 71 0 34 3 580
2010-01-27 1 58 0 20 3 145
2010-01-28 1 65 0 13 3 955
2010-01-29 3 81 0 17 3 847
2010-01-30 2 48 0 14 2 989
2010-01-31 3 60 0 14 3 387
* 2009 752 28 223 96 159 970 278
Décembre 2009 39 2 001 5 54 122 418
2009-12-01 2 99 0 21 3 827
2009-12-02 0 91 0 20 3 658
2009-12-03 3 128 0 22 4 078
2009-12-04 2 111 0 23 3 795
2009-12-05 1 47 1 17 2 228
2009-12-06 2 48 0 17 3 135
2009-12-07 1 116 1 27 3 862
2009-12-08 1 58 0 19 4 184
2009-12-09 1 94 0 33 3 923
2009-12-10 0 72 0 38 3 566
2009-12-11 1 46 0 25 2 665
2009-12-12 1 38 0 29 2 266
2009-12-13 0 42 0 28 1 478
2009-12-14 2 86 0 26 2 993
2009-12-15 2 128 0 32 3 520
2009-12-16 3 89 0 25 3 587
2009-12-17 2 106 0 31 3 888
2009-12-18 0 129 0 54 6 524
2009-12-19 0 43 0 14 2 643
2009-12-20 1 41 0 28 7 360
2009-12-21 2 76 0 28 8 634
2009-12-22 5 114 1 31 4 041
2009-12-23 0 33 0 39 3 096
2009-12-24 1 34 0 13 2 752
2009-12-25 0 7 0 32 3 780
2009-12-26 2 26 0 21 2 640
2009-12-27 0 33 1 10 2 292
2009-12-28 2 14 1 27 10 310
2009-12-29 0 18 0 15 5 672
2009-12-30 1 16 0 14 2 982
2009-12-31 1 18 0 11 3 039
Novembre 2009 59 3 138 6 38 117 432
Octobre 2009 67 3 218 11 18 122 232
2009-10-01 0 76 0 11 2 516
2009-10-02 1 64 0 10 2 579
2009-10-03 2 101 0 11 2 851
2009-10-04 1 126 0 12 3 520
2009-10-05 4 87 0 15 3 448
2009-10-06 5 84 0 13 3 357
2009-10-07 3 120 1 11 3 765
2009-10-08 3 194 0 14 4 579
2009-10-09 0 85 0 11 2 918
2009-10-10 3 88 1 11 2 279
2009-10-11 4 158 1 12 4 547
2009-10-12 3 160 0 13 4 399
2009-10-13 4 115 1 16 3 779
2009-10-14 1 84 0 13 3 531
2009-10-15 0 71 0 14 3 213
2009-10-16 0 67 0 17 11 597
2009-10-17 1 50 0 17 3 148
2009-10-18 0 67 1 16 4 508
2009-10-19 4 165 1 18 5 455
2009-10-20 0 85 0 14 3 066
2009-10-21 3 105 1 12 4 822
2009-10-22 2 99 1 13 3 611
2009-10-23 2 108 0 15 3 666
2009-10-24 1 67 1 12 2 884
2009-10-25 1 79 0 15 3 733
2009-10-26 3 100 1 13 3 989
2009-10-27 5 143 0 15 4 733
2009-10-28 0 60 1 12 2 921
2009-10-29 1 120 0 14 3 964
2009-10-30 4 193 0 17 4 507
2009-10-31 6 97 0 15 4 347
Septembre 2009 73 2 730 14 159 92 082
2009-09-01 4 68 1 15 2 626
2009-09-02 0 56 0 12 2 372
2009-09-03 2 195 2 15 3 946
2009-09-04 2 190 0 12 4 086
2009-09-05 1 48 1 10 2 054
2009-09-06 4 66 0 9 2 505
2009-09-07 2 88 0 12 2 827
2009-09-08 1 58 0 14 2 613
2009-09-09 3 77 2 159 4 703
2009-09-10 0 114 0 14 3 743
2009-09-11 1 74 0 12 3 640
2009-09-12 2 56 0 10 2 609
2009-09-13 3 93 0 10 3 245
2009-09-14 1 193 1 14 5 003
2009-09-15 4 138 1 12 3 518
2009-09-16 1 122 0 13 3 210
2009-09-17 4 86 2 11 2 944
2009-09-18 2 98 0 11 2 944
2009-09-19 5 104 2 11 2 638
2009-09-20 5 97 0 15 2 994
2009-09-21 3 77 0 12 2 877
2009-09-22 3 56 0 0 2 425
2009-09-23 2 72 0 13 2 559
2009-09-24 1 96 0 12 2 902
2009-09-25 1 54 0 11 2 059
2009-09-26 1 35 0 9 2 795
2009-09-27 2 49 0 13 2 487
2009-09-28 5 85 0 10 2 564
2009-09-29 6 92 0 27 4 187
2009-09-30 2 93 2 12 3 007
Août 2009 47 1 405 8 15 61 919
2009-08-01 2 39 0 13 1 336
2009-08-02 0 69 0 11 2 391
2009-08-03 1 44 0 11 1 874
2009-08-04 3 65 0 11 2 245
2009-08-05 2 48 0 10 1 649
2009-08-06 0 16 0 11 1 298
2009-08-07 0 47 1 8 1 823
2009-08-08 3 37 1 9 1 618
2009-08-09 0 29 0 7 1 656
2009-08-10 1 38 0 10 1 645
2009-08-11 0 24 0 9 1 552
2009-08-12 1 31 0 10 1 570
2009-08-13 0 11 0 10 1 503
2009-08-14 1 28 1 14 1 375
2009-08-15 1 28 0 8 1 978
2009-08-16 1 18 0 8 1 403
2009-08-17 2 52 0 11 2 044
2009-08-18 1 25 0 8 1 776
2009-08-19 0 29 0 15 3 027
2009-08-20 1 26 0 9 2 534
2009-08-21 1 30 0 10 1 626
2009-08-22 0 30 0 8 1 511
2009-08-23 3 54 0 10 2 054
2009-08-24 1 58 0 9 2 545
2009-08-25 0 37 0 15 1 903
2009-08-26 4 41 1 10 1 582
2009-08-27 4 160 2 10 3 765
2009-08-28 5 90 2 10 2 501
2009-08-29 1 72 0 14 2 703
2009-08-30 2 43 0 10 2 157
2009-08-31 6 86 0 12 3 275
Juillet 2009 68 1 737 11 21 67 267
Juin 2009 63 2 759 4 37 72 789
Mai 2009 46 2 166 6 16 66 386
Avril 2009 101 2 850 6 16 73 303
2009-04-01 3 166 1 14 3 669
2009-04-02 1 193 0 11 4 316
2009-04-03 1 125 1 11 2 873
2009-04-04 0 28 1 16 1 192
2009-04-05 0 23 0 9 1 660
2009-04-06 2 85 0 10 2 211
2009-04-07 5 106 0 14 2 655
2009-04-08 0 63 0 10 2 215
2009-04-09 2 119 0 14 2 827
2009-04-10 2 67 0 12 3 232
2009-04-11 0 27 0 9 1 101
2009-04-12 3 47 0 9 1 431
2009-04-13 3 98 1 9 2 738
2009-04-14 4 78 0 10 2 286
2009-04-15 3 108 0 10 2 870
2009-04-16 3 81 0 11 2 229
2009-04-17 0 92 0 12 2 534
2009-04-18 2 24 0 6 1 168
2009-04-19 2 68 0 10 1 951
2009-04-20 8 173 0 11 3 260
2009-04-21 4 205 0 15 3 878
2009-04-22 1 65 0 9 2 011
2009-04-23 0 115 0 11 2 136
2009-04-24 32 152 0 13 3 302
2009-04-25 2 37 1 12 1 453
2009-04-26 5 110 0 9 2 132
2009-04-27 0 112 0 12 2 669
2009-04-28 3 105 0 11 2 478
2009-04-29 4 103 1 12 2 554
2009-04-30 6 75 0 11 2 272
Mars 2009 80 3 538 7 17 83 610
Février 2009 57 1 586 6 16 50 521
2009-02-01 3 79 0 10 1 938
2009-02-02 2 66 0 11 2 491
2009-02-03 2 62 1 13 2 112
2009-02-04 2 48 0 12 1 911
2009-02-05 1 54 0 10 1 840
2009-02-06 0 42 1 9 1 456
2009-02-07 1 13 0 6 1 032
2009-02-08 5 69 1 9 1 650
2009-02-09 3 48 0 10 1 590
2009-02-10 2 56 0 8 1 453
2009-02-11 1 38 1 9 1 697
2009-02-12 2 30 0 8 1 354
2009-02-13 3 52 1 12 1 429
2009-02-14 1 29 0 11 988
2009-02-15 2 41 0 8 1 595
2009-02-16 2 62 0 10 2 271
2009-02-17 1 44 0 10 1 926
2009-02-18 1 62 0 10 2 139
2009-02-19 5 89 0 12 2 304
2009-02-20 1 66 0 12 2 066
2009-02-21 0 41 0 9 1 177
2009-02-22 6 58 0 11 1 838
2009-02-23 2 67 0 10 1 907
2009-02-24 1 64 0 12 2 219
2009-02-25 1 85 0 16 2 446
2009-02-26 2 76 0 12 2 117
2009-02-27 1 82 0 11 2 035
2009-02-28 4 63 1 10 1 540
Janvier 2009 52 1 095 12 10 40 319
2009-01-01 2 21 0 5 768
2009-01-02 5 32 2 7 1 486
2009-01-03 1 17 0 6 910
2009-01-04 0 22 0 9 1 555
2009-01-05 0 28 0 7 972
2009-01-06 1 17 1 7 734
2009-01-07 4 49 0 7 1 072
2009-01-08 1 33 0 8 1 218
2009-01-09 1 36 0 7 1 148
2009-01-10 1 19 0 9 1 249
2009-01-11 2 35 0 8 1 138
2009-01-12 1 21 2 8 1 085
2009-01-13 1 22 0 9 926
2009-01-14 1 38 1 6 1 577
2009-01-15 2 24 0 6 1 142
2009-01-16 1 22 0 9 1 101
2009-01-17 1 19 0 6 937
2009-01-18 1 19 0 8 1 091
2009-01-19 0 8 1 7 864
2009-01-20 2 22 1 10 1 014
2009-01-21 3 89 0 10 2 235
2009-01-22 0 50 0 8 1 433
2009-01-23 0 34 0 8 1 281
2009-01-24 2 18 0 7 902
2009-01-25 5 71 2 9 2 028
2009-01-26 1 85 0 10 2 278
2009-01-27 4 48 1 8 1 679
2009-01-28 3 72 0 8 1 963
2009-01-29 3 63 0 8 1 669
2009-01-30 1 38 0 9 1 324
2009-01-31 2 23 1 9 1 540
* 2008 334 4 655 56 26 234 055
Décembre 2008 36 663 7 12 28 104
Novembre 2008 51 1 090 9 10 35 948
Octobre 2008 50 609 5 10 26 582
Septembre 2008 40 619 5 10 24 365
Août 2008 28 252 6 9 21 916
2008-08-01 1 3 0 6 643
2008-08-02 1 7 1 4 575
2008-08-03 0 1 0 3 335
2008-08-04 1 9 0 8 348
2008-08-05 0 1 0 2 341
2008-08-06 1 6 0 5 362
2008-08-07 2 10 0 5 392
2008-08-08 0 5 0 3 492
2008-08-09 0 9 0 4 352
2008-08-10 0 5 0 4 379
2008-08-11 3 9 1 5 574
2008-08-12 1 10 0 9 785
2008-08-13 0 5 0 3 614
2008-08-14 0 6 0 3 300
2008-08-15 0 7 0 7 1 149
2008-08-16 0 5 0 5 2 200
2008-08-17 1 2 1 3 676
2008-08-18 2 12 0 6 505
2008-08-19 1 10 0 6 559
2008-08-20 0 16 0 4 441
2008-08-21 0 7 1 5 515
2008-08-22 6 27 0 6 789
2008-08-23 1 4 0 7 566
2008-08-24 1 3 0 5 765
2008-08-25 1 14 0 6 707
2008-08-26 0 7 0 8 778
2008-08-27 3 14 1 5 847
2008-08-28 0 6 0 5 701
2008-08-29 0 10 0 8 1 349
2008-08-30 0 2 0 5 1 714
2008-08-31 2 20 1 9 1 163
Juillet 2008 20 256 5 7 16 733
2008-07-01 1 11 0 5 499
2008-07-02 0 6 1 3 428
2008-07-03 1 15 0 7 504
2008-07-04 0 11 0 0 562
2008-07-05 0 3 1 5 416
2008-07-06 2 8 0 4 518
2008-07-07 0 6 0 5 766
2008-07-08 1 7 0 5 391
2008-07-09 2 18 0 5 586
2008-07-10 0 9 0 4 473
2008-07-11 0 5 0 0 440
2008-07-12 0 0 0 3 232
2008-07-13 0 2 0 2 270
2008-07-14 0 2 0 3 291
2008-07-15 2 10 0 4 395
2008-07-16 0 6 0 5 497
2008-07-17 1 12 0 4 772
2008-07-18 0 8 1 5 640
2008-07-19 1 6 0 4 328
2008-07-20 0 4 0 4 336
2008-07-21 1 12 1 5 586
2008-07-22 3 17 0 5 650
2008-07-23 0 9 0 4 678
2008-07-24 2 9 1 5 1 046
2008-07-25 0 2 0 0 497
2008-07-26 0 4 0 5 493
2008-07-27 1 10 0 6 1 290
2008-07-28 1 13 0 4 446
2008-07-29 0 11 0 3 514
2008-07-30 0 12 0 5 698
2008-07-31 1 8 0 0 491
Juin 2008 17 363 6 26 18 903
2008-06-01 1 5 0 4 292
2008-06-02 0 5 0 0 275
2008-06-03 1 18 0 0 394
2008-06-04 1 12 0 5 364
2008-06-05 0 20 0 5 515
2008-06-06 0 9 0 5 345
2008-06-07 1 9 0 3 329
2008-06-08 0 6 0 4 483
2008-06-09 0 6 0 4 293
2008-06-10 1 4 0 26 378
2008-06-11 1 5 0 3 352
2008-06-12 0 3 0 3 313
2008-06-13 0 2 0 0 459
2008-06-14 3 6 2 5 745
2008-06-15 0 5 0 4 1 117
2008-06-16 0 26 0 6 920
2008-06-17 1 24 1 6 870
2008-06-18 1 36 0 6 1 390
2008-06-19 0 33 0 6 1 026
2008-06-20 1 31 1 6 1 005
2008-06-21 0 19 0 5 1 268
2008-06-22 0 3 0 3 453
2008-06-23 0 1 0 6 520
2008-06-24 0 7 0 5 332
2008-06-25 3 25 1 8 752
2008-06-26 1 22 0 5 752
2008-06-27 0 8 0 5 928
2008-06-28 0 4 1 4 1 001
2008-06-29 1 4 0 8 610
2008-06-30 0 5 0 5 422
Mai 2008 17 180 2 10 13 320
Avril 2008 16 146 3 8 16 063
Mars 2008 18 158 1 9 12 835
2008-03-01 0 0 0 4 340
2008-03-02 2 5 0 0 302
2008-03-03 1 2 0 5 326
2008-03-04 0 2 0 5 294
2008-03-05 1 4 0 3 278
2008-03-06 2 16 0 5 449
2008-03-07 0 14 0 4 449
2008-03-08 1 4 0 0 354
2008-03-09 3 11 0 7 535
2008-03-10 0 2 0 0 368
2008-03-11 1 10 1 7 495
2008-03-12 0 6 0 5 471
2008-03-13 1 5 0 5 382
2008-03-14 0 10 0 7 498
2008-03-15 0 3 0 0 356
2008-03-16 0 4 0 4 344
2008-03-17 0 4 0 6 392
2008-03-18 0 0 0 0 304
2008-03-19 0 6 0 4 239
2008-03-20 0 4 0 3 192
2008-03-21 0 7 0 7 261
2008-03-22 0 0 0 4 319
2008-03-23 3 6 0 4 365
2008-03-24 1 10 0 6 495
2008-03-25 1 7 0 6 353
2008-03-26 0 3 0 3 375
2008-03-27 0 1 0 5 223
2008-03-28 0 2 0 6 979
2008-03-29 0 3 0 3 855
2008-03-30 0 0 0 7 632
2008-03-31 1 7 0 9 610
Février 2008 19 155 2 9 9 679
2008-02-01 1 10 0 4 268
2008-02-02 0 7 0 0 349
2008-02-03 0 1 0 5 248
2008-02-04 6 11 0 4 440
2008-02-05 0 11 0 0 497
2008-02-06 0 3 0 5 239
2008-02-07 0 5 0 0 333
2008-02-08 2 3 0 4 257
2008-02-09 0 3 0 5 219
2008-02-10 0 0 0 3 182
2008-02-11 1 8 0 6 281
2008-02-12 0 4 0 4 281
2008-02-13 0 2 0 4 191
2008-02-14 0 4 0 3 211
2008-02-15 0 8 0 5 258
2008-02-16 1 3 0 4 214
2008-02-17 0 8 1 4 460
2008-02-18 2 6 0 4 401
2008-02-19 1 4 0 5 515
2008-02-20 1 7 0 4 467
2008-02-21 1 3 0 5 489
2008-02-22 1 9 0 4 359
2008-02-23 0 2 0 4 179
2008-02-24 1 3 0 3 277
2008-02-25 0 4 0 4 516
2008-02-26 0 12 0 5 456
2008-02-27 0 5 1 5 449
2008-02-28 0 3 0 3 330
2008-02-29 1 6 0 9 313
Janvier 2008 22 164 5 7 9 607
* 2007 276 2 246 55 9 102 999
Décembre 2007 21 167 5 8 17 081
2007-12-01 0 1 0 4 239
2007-12-02 0 2 0 4 264
2007-12-03 1 5 0 4 262
2007-12-04 0 1 0 4 266
2007-12-05 0 0 0 3 201
2007-12-06 0 2 0 4 226
2007-12-07 0 12 0 0 371
2007-12-08 1 3 0 4 451
2007-12-09 2 8 0 4 2 230
2007-12-10 2 13 1 5 405
2007-12-11 0 5 1 4 312
2007-12-12 1 10 0 4 317
2007-12-13 0 2 0 0 258
2007-12-14 1 7 0 4 254
2007-12-15 2 6 0 3 303
2007-12-16 0 4 0 3 248
2007-12-17 1 6 0 4 267
2007-12-18 0 1 0 0 233
2007-12-19 2 7 0 3 285
2007-12-20 0 4 1 0 262
2007-12-21 0 3 1 8 313
2007-12-22 4 12 0 5 568
2007-12-23 0 10 0 4 406
2007-12-24 1 7 1 3 4 210
2007-12-25 1 9 0 3 296
2007-12-26 0 11 0 5 383
2007-12-27 0 5 0 4 331
2007-12-28 1 6 0 0 326
2007-12-29 1 1 0 0 221
2007-12-30 0 1 0 2 2 196
2007-12-31 0 3 0 2 177
Novembre 2007 20 168 3 6 8 467
Octobre 2007 21 147 4 5 8 193
2007-10-01 3 12 0 3 329
2007-10-02 0 6 0 4 319
2007-10-03 0 3 0 4 296
2007-10-04 2 10 0 3 310
2007-10-05 0 4 0 4 289
2007-10-06 0 0 0 3 208
2007-10-07 1 2 0 5 203
2007-10-08 1 9 1 4 335
2007-10-09 1 3 0 0 267
2007-10-10 1 7 1 3 300
2007-10-11 0 3 0 4 241
2007-10-12 0 2 0 5 251
2007-10-13 1 3 0 3 247
2007-10-14 0 0 0 3 152
2007-10-15 1 3 0 4 225
2007-10-16 0 2 0 2 145
2007-10-17 3 14 0 5 384
2007-10-18 1 5 0 0 378
2007-10-19 1 3 0 0 261
2007-10-20 0 2 0 3 226
2007-10-21 0 7 0 5 265
2007-10-22 0 0 0 3 197
2007-10-23 0 0 0 0 211
2007-10-24 1 2 0 3 164
2007-10-25 0 0 0 4 162
2007-10-26 1 2 0 4 138
2007-10-27 0 0 0 2 243
2007-10-28 2 3 1 4 239
2007-10-29 0 5 0 3 225
2007-10-30 1 20 1 5 587
2007-10-31 0 15 0 0 396
Septembre 2007 22 183 4 9 9 896
Août 2007 23 226 2 6 9 096
Juillet 2007 18 127 1 4 10 165
2007-07-01 0 3 0 4 345
2007-07-02 0 3 0 4 509
2007-07-03 1 4 0 3 302
2007-07-04 1 6 0 0 431
2007-07-05 0 1 0 3 348
2007-07-06 0 6 0 3 356
2007-07-07 1 6 0 3 274
2007-07-08 0 4 0 4 314
2007-07-09 0 5 0 0 411
2007-07-10 0 2 0 4 320
2007-07-11 0 0 0 4 238
2007-07-12 2 2 0 3 264
2007-07-13 1 4 0 0 268
2007-07-14 2 3 0 2 203
2007-07-15 0 0 0 0 245
2007-07-16 2 10 1 4 539
2007-07-17 0 5 0 4 322
2007-07-18 0 5 0 4 436
2007-07-19 0 10 0 0 392
2007-07-20 1 4 0 3 235
2007-07-21 1 2 0 2 215
2007-07-22 0 2 0 0 250
2007-07-23 3 6 0 3 602
2007-07-24 1 8 0 3 356
2007-07-25 0 7 0 4 392
2007-07-26 0 2 0 3 281
2007-07-27 0 9 0 4 327
2007-07-28 0 0 0 3 246
2007-07-29 1 3 0 2 219
2007-07-30 1 2 0 4 276
2007-07-31 0 3 0 4 249
Juin 2007 25 309 2 6 13 196
Mai 2007 30 315 8 7 11 830
Avril 2007 44 428 13 9 13 382
Mars 2007 52 176 13 4 1 693
2007-03-08 5 5 1 2 0
2007-03-09 4 10 2 3 0
2007-03-10 0 0 0 1 0
2007-03-11 0 2 0 2 0
2007-03-12 1 5 0 2 0
2007-03-13 18 26 0 2 0
2007-03-14 4 7 0 3 0
2007-03-15 0 1 0 1 0
2007-03-16 0 1 0 2 0
2007-03-17 0 0 0 1 0
2007-03-18 0 0 2 2 0
2007-03-19 1 4 1 2 0
2007-03-20 3 10 2 2 0
2007-03-21 1 3 0 1 0
2007-03-22 1 13 1 3 0
2007-03-23 4 12 1 4 0
2007-03-24 1 2 1 1 0
2007-03-25 0 2 0 2 0
2007-03-26 4 12 1 2 223
2007-03-27 2 30 0 3 507
2007-03-28 0 13 0 3 452
2007-03-29 1 6 0 2 100
2007-03-30 0 3 0 3 131
2007-03-31 2 9 1 3 280